<?xml version='1.0' encoding='UTF-8'?><gpx version="1.1" creator="JPX - https://github.com/jenetics/jpx" xmlns="http://www.topografix.com/GPX/1/1"><trk><trkseg><trkpt lat="21.82999568213003" lon="100.46757664163658"><ele>1223.0</ele><time>2026-03-29T06:00:32Z</time></trkpt><trkpt lat="21.829945911579472" lon="100.46762187748898"><ele>1223.0</ele><time>2026-03-29T06:00:38Z</time></trkpt><trkpt lat="21.829876814148736" lon="100.46756554764148"><ele>1223.0</ele><time>2026-03-29T06:00:40Z</time></trkpt><trkpt lat="21.82982577249073" lon="100.467522172006"><ele>1223.0</ele><time>2026-03-29T06:00:44Z</time></trkpt><trkpt lat="21.829750083136766" lon="100.46755442957695"><ele>1223.0</ele><time>2026-03-29T06:00:51Z</time></trkpt><trkpt lat="21.829664705650345" lon="100.46763234192684"><ele>1223.0</ele><time>2026-03-29T06:02:35.999Z</time></trkpt><trkpt lat="21.82956727978308" lon="100.46769953587301"><ele>1223.0</ele><time>2026-03-29T06:02:37.999Z</time></trkpt><trkpt lat="21.829521495269137" lon="100.46777830585171"><ele>1223.0</ele><time>2026-03-29T06:02:39.999Z</time></trkpt><trkpt lat="21.82954536278874" lon="100.46786136863412"><ele>1223.0</ele><time>2026-03-29T06:02:40.999Z</time></trkpt><trkpt lat="21.829538548017275" lon="100.46796101531478"><ele>1223.0</ele><time>2026-03-29T06:02:41.999Z</time></trkpt><trkpt lat="21.82954301434644" lon="100.46803684761811"><ele>1223.0</ele><time>2026-03-29T06:02:42.999Z</time></trkpt><trkpt lat="21.82954787383301" lon="100.46811700210651"><ele>1223.0</ele><time>2026-03-29T06:02:43.999Z</time></trkpt><trkpt lat="21.82946687207076" lon="100.46820304914357"><ele>1223.0</ele><time>2026-03-29T06:02:45.999Z</time></trkpt><trkpt lat="21.829426817671898" lon="100.4682773515334"><ele>1223.0</ele><time>2026-03-29T06:02:47.999Z</time></trkpt><trkpt lat="21.829374931587026" lon="100.46838623403553"><ele>1223.0</ele><time>2026-03-29T06:02:49.999Z</time></trkpt><trkpt lat="21.829326378109094" lon="100.46846248162632"><ele>1223.0</ele><time>2026-03-29T06:02:50.999Z</time></trkpt><trkpt lat="21.829295228794262" lon="100.46854952376852"><ele>1223.0</ele><time>2026-03-29T06:02:51.999Z</time></trkpt><trkpt lat="21.82927195985387" lon="100.46862595240887"><ele>1223.0</ele><time>2026-03-29T06:02:52.999Z</time></trkpt><trkpt lat="21.829249311048752" lon="100.46870868498834"><ele>1223.5</ele><time>2026-03-29T06:02:53.999Z</time></trkpt><trkpt lat="21.82925032121907" lon="100.46881752865458"><ele>1224.0</ele><time>2026-03-29T06:02:54.999Z</time></trkpt><trkpt lat="21.829256392071354" lon="100.46894786448888"><ele>1224.5</ele><time>2026-03-29T06:02:55.999Z</time></trkpt><trkpt lat="21.829261973085224" lon="100.46906771099837"><ele>1225.0</ele><time>2026-03-29T06:02:56.999Z</time></trkpt><trkpt lat="21.82926790871858" lon="100.46919520401175"><ele>1225.0</ele><time>2026-03-29T06:02:57.999Z</time></trkpt><trkpt lat="21.829274013855613" lon="100.4693262756428"><ele>1225.0</ele><time>2026-03-29T06:02:58.999Z</time></trkpt><trkpt lat="21.8292796685295" lon="100.46944731618443"><ele>1225.0</ele><time>2026-03-29T06:02:59.999Z</time></trkpt><trkpt lat="21.82947227923293" lon="100.46955421674254"><ele>1224.5</ele><time>2026-03-29T06:03:00.999Z</time></trkpt><trkpt lat="21.829537820151348" lon="100.46966922566527"><ele>1224.0</ele><time>2026-03-29T06:03:01.999Z</time></trkpt><trkpt lat="21.829564880119882" lon="100.46975318858034"><ele>1223.5</ele><time>2026-03-29T06:03:02.999Z</time></trkpt><trkpt lat="21.82956379328472" lon="100.46983265397982"><ele>1223.0</ele><time>2026-03-29T06:03:03.999Z</time></trkpt><trkpt lat="21.829545667560172" lon="100.4699054381084"><ele>1222.5</ele><time>2026-03-29T06:03:04.999Z</time></trkpt><trkpt lat="21.829515438676445" lon="100.46998169532321"><ele>1222.0</ele><time>2026-03-29T06:03:05.999Z</time></trkpt><trkpt lat="21.829480750804464" lon="100.47005132974256"><ele>1222.0</ele><time>2026-03-29T06:03:06.999Z</time></trkpt><trkpt lat="21.829456552238067" lon="100.47012646986359"><ele>1222.0</ele><time>2026-03-29T06:03:08Z</time></trkpt><trkpt lat="21.82943270406046" lon="100.47020820168811"><ele>1222.0</ele><time>2026-03-29T06:03:09Z</time></trkpt><trkpt lat="21.829403803855254" lon="100.47030000869631"><ele>1222.0</ele><time>2026-03-29T06:03:10Z</time></trkpt><trkpt lat="21.82937483118269" lon="100.47039044271975"><ele>1222.0</ele><time>2026-03-29T06:03:11Z</time></trkpt><trkpt lat="21.82935684914061" lon="100.47046293049992"><ele>1222.0</ele><time>2026-03-29T06:03:12Z</time></trkpt><trkpt lat="21.82932889394185" lon="100.47054310260074"><ele>1224.0</ele><time>2026-03-29T06:03:14Z</time></trkpt><trkpt lat="21.829285501809615" lon="100.47060984159702"><ele>1226.0</ele><time>2026-03-29T06:03:17Z</time></trkpt><trkpt lat="21.829251994127063" lon="100.47070856500474"><ele>1228.0</ele><time>2026-03-29T06:03:20Z</time></trkpt><trkpt lat="21.8292363542257" lon="100.47079784576889"><ele>1230.0</ele><time>2026-03-29T06:03:22Z</time></trkpt><trkpt lat="21.82922803380185" lon="100.47089118546995"><ele>1232.0</ele><time>2026-03-29T06:03:24Z</time></trkpt><trkpt lat="21.829210606567948" lon="100.47095868106824"><ele>1234.0</ele><time>2026-03-29T06:03:26Z</time></trkpt><trkpt lat="21.829190881614196" lon="100.4710502351228"><ele>1234.0</ele><time>2026-03-29T06:03:28Z</time></trkpt><trkpt lat="21.82917102257172" lon="100.47114091706227"><ele>1234.0</ele><time>2026-03-29T06:03:30Z</time></trkpt><trkpt lat="21.829151006019906" lon="100.47124230547142"><ele>1234.0</ele><time>2026-03-29T06:03:32Z</time></trkpt><trkpt lat="21.829173024804074" lon="100.47133330108055"><ele>1234.0</ele><time>2026-03-29T06:03:34Z</time></trkpt><trkpt lat="21.82919278462559" lon="100.4714659356219"><ele>1234.0</ele><time>2026-03-29T06:03:36Z</time></trkpt><trkpt lat="21.829220775823135" lon="100.47159390428533"><ele>1236.2</ele><time>2026-03-29T06:03:38Z</time></trkpt><trkpt lat="21.829226674102355" lon="100.47169267342936"><ele>1238.4</ele><time>2026-03-29T06:03:40Z</time></trkpt><trkpt lat="21.829208469096656" lon="100.47179514234118"><ele>1240.6</ele><time>2026-03-29T06:03:42Z</time></trkpt><trkpt lat="21.829174410699892" lon="100.47190089081089"><ele>1242.8</ele><time>2026-03-29T06:03:44Z</time></trkpt><trkpt lat="21.82914289674919" lon="100.47200431950631"><ele>1245.0</ele><time>2026-03-29T06:03:46Z</time></trkpt><trkpt lat="21.829115436267372" lon="100.47209788497113"><ele>1245.5714285714284</ele><time>2026-03-29T06:03:48Z</time></trkpt><trkpt lat="21.829095346599708" lon="100.47217617679055"><ele>1246.142857142857</ele><time>2026-03-29T06:03:50Z</time></trkpt><trkpt lat="21.829069336151075" lon="100.47225402464923"><ele>1246.7142857142858</ele><time>2026-03-29T06:03:53Z</time></trkpt><trkpt lat="21.829004397506427" lon="100.47227415878807"><ele>1247.2857142857142</ele><time>2026-03-29T06:03:54Z</time></trkpt><trkpt lat="21.828977235251322" lon="100.47235062144438"><ele>1247.857142857143</ele><time>2026-03-29T06:03:58Z</time></trkpt><trkpt lat="21.828952606524535" lon="100.47241417033328"><ele>1248.4285714285713</ele><time>2026-03-29T06:04:00Z</time></trkpt><trkpt lat="21.828947272245898" lon="100.47250372877718"><ele>1249.0</ele><time>2026-03-29T06:04:03Z</time></trkpt><trkpt lat="21.828931339907847" lon="100.47258284636254"><ele>1249.0</ele><time>2026-03-29T06:04:05Z</time></trkpt><trkpt lat="21.82889586751997" lon="100.47264918960411"><ele>1249.0</ele><time>2026-03-29T06:04:08Z</time></trkpt><trkpt lat="21.828823877704" lon="100.47275512887093"><ele>1249.0</ele><time>2026-03-29T06:04:20Z</time></trkpt><trkpt lat="21.828760418334877" lon="100.47279669130167"><ele>1249.0</ele><time>2026-03-29T06:04:22Z</time></trkpt><trkpt lat="21.8286993875286" lon="100.47282605697731"><ele>1249.0</ele><time>2026-03-29T06:04:24Z</time></trkpt><trkpt lat="21.828630793536203" lon="100.47286894183694"><ele>1249.0</ele><time>2026-03-29T06:04:26Z</time></trkpt><trkpt lat="21.828582090998527" lon="100.47291648384935"><ele>1249.8</ele><time>2026-03-29T06:04:28Z</time></trkpt><trkpt lat="21.828531977330414" lon="100.47297902000525"><ele>1250.6000000000001</ele><time>2026-03-29T06:04:30Z</time></trkpt><trkpt lat="21.82848327932532" lon="100.47305141814572"><ele>1251.4</ele><time>2026-03-29T06:04:32Z</time></trkpt><trkpt lat="21.82845546837142" lon="100.47315439058904"><ele>1252.2</ele><time>2026-03-29T06:04:34Z</time></trkpt><trkpt lat="21.828456173673757" lon="100.4732953507632"><ele>1253.0</ele><time>2026-03-29T06:04:36.998Z</time></trkpt><trkpt lat="21.828453761842873" lon="100.47338318246"><ele>1257.4</ele><time>2026-03-29T06:04:38.998Z</time></trkpt><trkpt lat="21.82847593203794" lon="100.47347063518428"><ele>1261.8</ele><time>2026-03-29T06:05:07.999Z</time></trkpt><trkpt lat="21.828467317711674" lon="100.47357872452685"><ele>1266.2</ele><time>2026-03-29T06:05:09.999Z</time></trkpt><trkpt lat="21.828469537505217" lon="100.47369368647469"><ele>1270.6</ele><time>2026-03-29T06:05:11.999Z</time></trkpt><trkpt lat="21.82846636538742" lon="100.47376274745974"><ele>1275.0</ele><time>2026-03-29T06:05:12.999Z</time></trkpt><trkpt lat="21.828513104054217" lon="100.47388837099855"><ele>1275.142857142857</ele><time>2026-03-29T06:05:14.999Z</time></trkpt><trkpt lat="21.828547836497652" lon="100.473954525061"><ele>1275.2857142857142</ele><time>2026-03-29T06:05:16Z</time></trkpt><trkpt lat="21.828584158625304" lon="100.47401840504597"><ele>1275.4285714285716</ele><time>2026-03-29T06:05:17Z</time></trkpt><trkpt lat="21.82859981215701" lon="100.47408933189088"><ele>1275.5714285714284</ele><time>2026-03-29T06:05:18Z</time></trkpt><trkpt lat="21.82859576055756" lon="100.47415753865768"><ele>1275.7142857142856</ele><time>2026-03-29T06:05:19Z</time></trkpt><trkpt lat="21.828574241961828" lon="100.4742288044246"><ele>1275.857142857143</ele><time>2026-03-29T06:05:20Z</time></trkpt><trkpt lat="21.828539763913238" lon="100.47428903932256"><ele>1276.0</ele><time>2026-03-29T06:05:21Z</time></trkpt><trkpt lat="21.828486479908058" lon="100.47433696834389"><ele>1278.5</ele><time>2026-03-29T06:05:22Z</time></trkpt><trkpt lat="21.828387398153573" lon="100.47442499329675"><ele>1281.0</ele><time>2026-03-29T06:05:24Z</time></trkpt><trkpt lat="21.828309119382627" lon="100.47444669593635"><ele>1283.5</ele><time>2026-03-29T06:05:25Z</time></trkpt><trkpt lat="21.82824159049829" lon="100.47447268247531"><ele>1286.0</ele><time>2026-03-29T06:05:26Z</time></trkpt><trkpt lat="21.82817313719516" lon="100.47449434359582"><ele>1288.5</ele><time>2026-03-29T06:05:27Z</time></trkpt><trkpt lat="21.828121687801758" lon="100.4745483489939"><ele>1291.0</ele><time>2026-03-29T06:05:28Z</time></trkpt><trkpt lat="21.82805773858176" lon="100.47461341816545"><ele>1294.3333333333333</ele><time>2026-03-29T06:05:29Z</time></trkpt><trkpt lat="21.8279958762675" lon="100.47467449049051"><ele>1297.6666666666665</ele><time>2026-03-29T06:05:30Z</time></trkpt><trkpt lat="21.82791805677564" lon="100.4747156493286"><ele>1301.0</ele><time>2026-03-29T06:05:31Z</time></trkpt><trkpt lat="21.827851759378174" lon="100.47474634472357"><ele>1304.3333333333333</ele><time>2026-03-29T06:05:32Z</time></trkpt><trkpt lat="21.827797274392946" lon="100.47478074148528"><ele>1307.6666666666667</ele><time>2026-03-29T06:05:33Z</time></trkpt><trkpt lat="21.827729080705986" lon="100.47489080903895"><ele>1311.0</ele><time>2026-03-29T06:05:35Z</time></trkpt><trkpt lat="21.82773955124841" lon="100.47501643202807"><ele>1311.0</ele><time>2026-03-29T06:05:37Z</time></trkpt><trkpt lat="21.827759563601973" lon="100.47513990456252"><ele>1311.0</ele><time>2026-03-29T06:05:39Z</time></trkpt><trkpt lat="21.827762738734123" lon="100.47520971918001"><ele>1311.0</ele><time>2026-03-29T06:05:40Z</time></trkpt><trkpt lat="21.82775805094674" lon="100.4752804850808"><ele>1311.0</ele><time>2026-03-29T06:05:41Z</time></trkpt><trkpt lat="21.827751393608274" lon="100.47536441726335"><ele>1311.0</ele><time>2026-03-29T06:05:42Z</time></trkpt><trkpt lat="21.827732791797953" lon="100.47544842143152"><ele>1311.0</ele><time>2026-03-29T06:05:43Z</time></trkpt><trkpt lat="21.82771324476591" lon="100.47554001253664"><ele>1311.8</ele><time>2026-03-29T06:05:44Z</time></trkpt><trkpt lat="21.8276689859682" lon="100.47563586275518"><ele>1312.6</ele><time>2026-03-29T06:05:45Z</time></trkpt><trkpt lat="21.827603910978464" lon="100.47571439390902"><ele>1313.4</ele><time>2026-03-29T06:05:46Z</time></trkpt><trkpt lat="21.827542474649743" lon="100.47579264197275"><ele>1314.2</ele><time>2026-03-29T06:05:47Z</time></trkpt><trkpt lat="21.827482707743986" lon="100.47587299595318"><ele>1315.0</ele><time>2026-03-29T06:05:48Z</time></trkpt><trkpt lat="21.82743293963619" lon="100.47595984085521"><ele>1315.0</ele><time>2026-03-29T06:05:49Z</time></trkpt><trkpt lat="21.827390755366533" lon="100.47604730523095"><ele>1315.0</ele><time>2026-03-29T06:05:50Z</time></trkpt><trkpt lat="21.827343588227468" lon="100.4761462301867"><ele>1315.0</ele><time>2026-03-29T06:05:51Z</time></trkpt><trkpt lat="21.827297921445883" lon="100.47623755058422"><ele>1315.0</ele><time>2026-03-29T06:05:52Z</time></trkpt><trkpt lat="21.827257660270945" lon="100.47632127666849"><ele>1315.0</ele><time>2026-03-29T06:05:53Z</time></trkpt><trkpt lat="21.827218665042107" lon="100.47640405812623"><ele>1317.0</ele><time>2026-03-29T06:05:54Z</time></trkpt><trkpt lat="21.827184142679304" lon="100.4764883058502"><ele>1319.0</ele><time>2026-03-29T06:05:55Z</time></trkpt><trkpt lat="21.827146110261143" lon="100.47656376755"><ele>1321.0</ele><time>2026-03-29T06:05:56Z</time></trkpt><trkpt lat="21.827141857710604" lon="100.47664392221063"><ele>1323.0</ele><time>2026-03-29T06:05:57Z</time></trkpt><trkpt lat="21.827116225309613" lon="100.47677787571642"><ele>1325.0</ele><time>2026-03-29T06:05:58Z</time></trkpt><trkpt lat="21.827118024235368" lon="100.47686704142"><ele>1327.0</ele><time>2026-03-29T06:05:59Z</time></trkpt><trkpt lat="21.827153469532973" lon="100.47697750518894"><ele>1327.0</ele><time>2026-03-29T06:06:01Z</time></trkpt><trkpt lat="21.827228454972197" lon="100.47705268102781"><ele>1327.0</ele><time>2026-03-29T06:06:03Z</time></trkpt><trkpt lat="21.8273495697453" lon="100.47707122601867"><ele>1327.0</ele><time>2026-03-29T06:06:05Z</time></trkpt><trkpt lat="21.827463236777476" lon="100.47709959133586"><ele>1327.0</ele><time>2026-03-29T06:06:07Z</time></trkpt><trkpt lat="21.82752767108989" lon="100.47713059293758"><ele>1327.0</ele><time>2026-03-29T06:06:08Z</time></trkpt><trkpt lat="21.827579768418154" lon="100.4771736381418"><ele>1325.1999999999998</ele><time>2026-03-29T06:06:09Z</time></trkpt><trkpt lat="21.827644050946727" lon="100.47728977344187"><ele>1323.4</ele><time>2026-03-29T06:06:11Z</time></trkpt><trkpt lat="21.827630166696302" lon="100.47741628961921"><ele>1321.6</ele><time>2026-03-29T06:06:13Z</time></trkpt><trkpt lat="21.827622509042858" lon="100.47748795659207"><ele>1319.8000000000002</ele><time>2026-03-29T06:06:14Z</time></trkpt><trkpt lat="21.827604845137117" lon="100.47762687889585"><ele>1318.0</ele><time>2026-03-29T06:06:16Z</time></trkpt><trkpt lat="21.82760244350291" lon="100.4777057508198"><ele>1318.0</ele><time>2026-03-29T06:06:17Z</time></trkpt><trkpt lat="21.827604348584757" lon="100.47778459749348"><ele>1318.0</ele><time>2026-03-29T06:06:18Z</time></trkpt><trkpt lat="21.827613372853133" lon="100.47786366809338"><ele>1318.0</ele><time>2026-03-29T06:06:19Z</time></trkpt><trkpt lat="21.827630065729213" lon="100.47794069576456"><ele>1318.0</ele><time>2026-03-29T06:06:20Z</time></trkpt><trkpt lat="21.82764509985984" lon="100.47801864784583"><ele>1318.0</ele><time>2026-03-29T06:06:21Z</time></trkpt><trkpt lat="21.827665698706852" lon="100.4780944060274"><ele>1318.0</ele><time>2026-03-29T06:06:22Z</time></trkpt><trkpt lat="21.82767705897249" lon="100.47816549292796"><ele>1318.0</ele><time>2026-03-29T06:06:23Z</time></trkpt><trkpt lat="21.827690234992097" lon="100.47823722538344"><ele>1317.0</ele><time>2026-03-29T06:06:24Z</time></trkpt><trkpt lat="21.827707009954807" lon="100.4783094579804"><ele>1316.0</ele><time>2026-03-29T06:06:25Z</time></trkpt><trkpt lat="21.827722861631838" lon="100.47838283491858"><ele>1315.0</ele><time>2026-03-29T06:06:26Z</time></trkpt><trkpt lat="21.827764746989438" lon="100.47850371326179"><ele>1314.0</ele><time>2026-03-29T06:06:28Z</time></trkpt><trkpt lat="21.827788832627792" lon="100.47856879459864"><ele>1313.0</ele><time>2026-03-29T06:06:29Z</time></trkpt><trkpt lat="21.827810341600518" lon="100.47863289170176"><ele>1312.0</ele><time>2026-03-29T06:06:30Z</time></trkpt><trkpt lat="21.827828987008925" lon="100.47870302306372"><ele>1314.6666666666665</ele><time>2026-03-29T06:06:31Z</time></trkpt><trkpt lat="21.82784891573797" lon="100.47877238733764"><ele>1317.3333333333333</ele><time>2026-03-29T06:06:32Z</time></trkpt><trkpt lat="21.82787773941981" lon="100.4788409011702"><ele>1320.0</ele><time>2026-03-29T06:06:33Z</time></trkpt><trkpt lat="21.827901389191556" lon="100.47891102072957"><ele>1322.6666666666667</ele><time>2026-03-29T06:06:34Z</time></trkpt><trkpt lat="21.827915367576903" lon="100.47898518665743"><ele>1325.3333333333335</ele><time>2026-03-29T06:06:35Z</time></trkpt><trkpt lat="21.827903118412237" lon="100.47911435870682"><ele>1328.0</ele><time>2026-03-29T06:06:37Z</time></trkpt><trkpt lat="21.82782975513906" lon="100.47921475008448"><ele>1328.0</ele><time>2026-03-29T06:06:39Z</time></trkpt><trkpt lat="21.827741705978784" lon="100.47925566322104"><ele>1328.0</ele><time>2026-03-29T06:06:40.998Z</time></trkpt><trkpt lat="21.827649765617625" lon="100.47929556080095"><ele>1328.0</ele><time>2026-03-29T06:06:42.998Z</time></trkpt><trkpt lat="21.827555686367063" lon="100.47934663579106"><ele>1328.0</ele><time>2026-03-29T06:06:44.998Z</time></trkpt><trkpt lat="21.82748186315255" lon="100.47942262941598"><ele>1328.0</ele><time>2026-03-29T06:06:46.998Z</time></trkpt><trkpt lat="21.82744600289748" lon="100.47948537824114"><ele>1328.4</ele><time>2026-03-29T06:06:48.998Z</time></trkpt><trkpt lat="21.827397355110808" lon="100.47953409570609"><ele>1328.8000000000002</ele><time>2026-03-29T06:06:50.998Z</time></trkpt><trkpt lat="21.827360960984056" lon="100.479633205089"><ele>1329.2</ele><time>2026-03-29T06:06:52.998Z</time></trkpt><trkpt lat="21.827333297595402" lon="100.47979278049256"><ele>1329.6</ele><time>2026-03-29T06:06:55.999Z</time></trkpt><trkpt lat="21.82728972621545" lon="100.47985189574217"><ele>1330.0</ele><time>2026-03-29T06:06:56.999Z</time></trkpt><trkpt lat="21.827217540102094" lon="100.47986601361613"><ele>1332.8333333333333</ele><time>2026-03-29T06:06:57.999Z</time></trkpt><trkpt lat="21.82714456821918" lon="100.479866786784"><ele>1335.6666666666665</ele><time>2026-03-29T06:06:58.999Z</time></trkpt><trkpt lat="21.827071028741802" lon="100.47987564205498"><ele>1338.5</ele><time>2026-03-29T06:06:59.999Z</time></trkpt><trkpt lat="21.827004117617225" lon="100.4798987061989"><ele>1341.3333333333333</ele><time>2026-03-29T06:07:00.999Z</time></trkpt><trkpt lat="21.826923399158392" lon="100.4798712079336"><ele>1344.1666666666667</ele><time>2026-03-29T06:07:01.999Z</time></trkpt><trkpt lat="21.826852680598687" lon="100.47986372727465"><ele>1347.0</ele><time>2026-03-29T06:07:02.999Z</time></trkpt><trkpt lat="21.82677555974959" lon="100.47987509005502"><ele>1347.0</ele><time>2026-03-29T06:07:03.999Z</time></trkpt><trkpt lat="21.826709285397225" lon="100.47989716640966"><ele>1347.0</ele><time>2026-03-29T06:07:04.999Z</time></trkpt><trkpt lat="21.82670163502275" lon="100.4799676365805"><ele>1347.0</ele><time>2026-03-29T06:07:06.999Z</time></trkpt><trkpt lat="21.826797232686083" lon="100.48003510998366"><ele>1347.0</ele><time>2026-03-29T06:07:08.999Z</time></trkpt><trkpt lat="21.826859565038625" lon="100.480072288357"><ele>1347.0</ele><time>2026-03-29T06:07:09.999Z</time></trkpt><trkpt lat="21.82693025914779" lon="100.48008103987291"><ele>1347.0</ele><time>2026-03-29T06:07:10.999Z</time></trkpt><trkpt lat="21.82700530914192" lon="100.48009337420626"><ele>1348.8333333333333</ele><time>2026-03-29T06:07:11.999Z</time></trkpt><trkpt lat="21.827071110226818" lon="100.48011674234593"><ele>1350.6666666666667</ele><time>2026-03-29T06:07:12.999Z</time></trkpt><trkpt lat="21.827119567622283" lon="100.4802237210869"><ele>1352.5</ele><time>2026-03-29T06:07:14.999Z</time></trkpt><trkpt lat="21.827174227872284" lon="100.48025746808176"><ele>1354.3333333333335</ele><time>2026-03-29T06:07:15.999Z</time></trkpt><trkpt lat="21.82727671623931" lon="100.48025964012184"><ele>1356.1666666666667</ele><time>2026-03-29T06:07:17.999Z</time></trkpt><trkpt lat="21.827372828157813" lon="100.48025469205511"><ele>1358.0</ele><time>2026-03-29T06:07:19.999Z</time></trkpt><trkpt lat="21.827460685348743" lon="100.480275339633"><ele>1358.0</ele><time>2026-03-29T06:07:22Z</time></trkpt><trkpt lat="21.82754962139422" lon="100.48031181148326"><ele>1358.0</ele><time>2026-03-29T06:07:24Z</time></trkpt><trkpt lat="21.827610929211286" lon="100.4803734784038"><ele>1358.0</ele><time>2026-03-29T06:07:26Z</time></trkpt><trkpt lat="21.827666940369937" lon="100.48046226951062"><ele>1358.0</ele><time>2026-03-29T06:07:28Z</time></trkpt><trkpt lat="21.827695705739604" lon="100.48055034160735"><ele>1358.0</ele><time>2026-03-29T06:07:30Z</time></trkpt><trkpt lat="21.827704255995656" lon="100.48064652752657"><ele>1357.6000000000001</ele><time>2026-03-29T06:07:32Z</time></trkpt><trkpt lat="21.82769004314446" lon="100.48073128511068"><ele>1357.2</ele><time>2026-03-29T06:07:34Z</time></trkpt><trkpt lat="21.82769530732006" lon="100.48084729406547"><ele>1356.8</ele><time>2026-03-29T06:07:36Z</time></trkpt><trkpt lat="21.827688268360845" lon="100.48096042730698"><ele>1356.4</ele><time>2026-03-29T06:07:39Z</time></trkpt><trkpt lat="21.827684782526166" lon="100.48106712741973"><ele>1356.0</ele><time>2026-03-29T06:07:41Z</time></trkpt><trkpt lat="21.827696678700814" lon="100.48118503402259"><ele>1355.75</ele><time>2026-03-29T06:07:43Z</time></trkpt><trkpt lat="21.827756621742058" lon="100.4813602059643"><ele>1355.5</ele><time>2026-03-29T06:07:45Z</time></trkpt><trkpt lat="21.827746242038632" lon="100.48147533640501"><ele>1355.25</ele><time>2026-03-29T06:07:47Z</time></trkpt><trkpt lat="21.8277020004205" lon="100.48157965606813"><ele>1355.0</ele><time>2026-03-29T06:07:49Z</time></trkpt><trkpt lat="21.8276475106145" lon="100.4816818135495"><ele>1361.5</ele><time>2026-03-29T06:07:51Z</time></trkpt><trkpt lat="21.827585734005996" lon="100.48176818540317"><ele>1368.0</ele><time>2026-03-29T06:07:53Z</time></trkpt><trkpt lat="21.82751987170842" lon="100.48186181134007"><ele>1374.5</ele><time>2026-03-29T06:07:55Z</time></trkpt><trkpt lat="21.827452903213704" lon="100.48197343306977"><ele>1381.0</ele><time>2026-03-29T06:07:57Z</time></trkpt><trkpt lat="21.827396983648693" lon="100.482090435494"><ele>1381.0</ele><time>2026-03-29T06:07:59Z</time></trkpt><trkpt lat="21.82735231972137" lon="100.48218094947927"><ele>1381.0</ele><time>2026-03-29T06:08:01Z</time></trkpt><trkpt lat="21.827303609164012" lon="100.4822765234328"><ele>1381.0</ele><time>2026-03-29T06:08:03Z</time></trkpt><trkpt lat="21.82722218863923" lon="100.48236230058642"><ele>1381.0</ele><time>2026-03-29T06:08:04Z</time></trkpt><trkpt lat="21.827165267570948" lon="100.48239127982154"><ele>1381.0</ele><time>2026-03-29T06:08:06Z</time></trkpt><trkpt lat="21.827078157032755" lon="100.48241612368084"><ele>1381.0</ele><time>2026-03-29T06:08:08Z</time></trkpt><trkpt lat="21.827009935403222" lon="100.48247994567794"><ele>1381.0</ele><time>2026-03-29T06:08:10Z</time></trkpt><trkpt lat="21.826962405265196" lon="100.48255456219978"><ele>1381.0</ele><time>2026-03-29T06:08:11Z</time></trkpt><trkpt lat="21.826912678712826" lon="100.48265403379182"><ele>1381.0</ele><time>2026-03-29T06:08:13Z</time></trkpt><trkpt lat="21.82684735735867" lon="100.48272027687199"><ele>1381.0</ele><time>2026-03-29T06:08:15Z</time></trkpt><trkpt lat="21.826846376522152" lon="100.48279627486762"><ele>1381.0</ele><time>2026-03-29T06:08:16Z</time></trkpt><trkpt lat="21.826818223531085" lon="100.48286592520915"><ele>1386.4</ele><time>2026-03-29T06:08:17Z</time></trkpt><trkpt lat="21.826801273288964" lon="100.48293225626321"><ele>1391.8</ele><time>2026-03-29T06:08:18Z</time></trkpt><trkpt lat="21.826788969752293" lon="100.48300340571792"><ele>1397.2</ele><time>2026-03-29T06:08:19Z</time></trkpt><trkpt lat="21.826756015706046" lon="100.4831293231529"><ele>1402.6000000000001</ele><time>2026-03-29T06:08:21Z</time></trkpt><trkpt lat="21.826694320059506" lon="100.4832284312841"><ele>1408.0</ele><time>2026-03-29T06:08:23Z</time></trkpt><trkpt lat="21.82663169641794" lon="100.48334858454646"><ele>1408.0</ele><time>2026-03-29T06:08:25Z</time></trkpt><trkpt lat="21.82657649358703" lon="100.48347860696457"><ele>1408.0</ele><time>2026-03-29T06:08:27Z</time></trkpt><trkpt lat="21.826550382676555" lon="100.48355340275602"><ele>1408.0</ele><time>2026-03-29T06:08:28Z</time></trkpt><trkpt lat="21.826529859235123" lon="100.48362100998303"><ele>1408.0</ele><time>2026-03-29T06:08:29.001Z</time></trkpt><trkpt lat="21.826460100778608" lon="100.48371137247939"><ele>1408.0</ele><time>2026-03-29T06:08:30.001Z</time></trkpt><trkpt lat="21.826433512139353" lon="100.4837786911637"><ele>1409.8333333333333</ele><time>2026-03-29T06:08:31.001Z</time></trkpt><trkpt lat="21.82642192796314" lon="100.48384976876851"><ele>1411.6666666666665</ele><time>2026-03-29T06:08:32.001Z</time></trkpt><trkpt lat="21.826417226905743" lon="100.48393230048758"><ele>1413.5</ele><time>2026-03-29T06:08:33.001Z</time></trkpt><trkpt lat="21.826399745023224" lon="100.48401473842436"><ele>1415.3333333333333</ele><time>2026-03-29T06:08:34.001Z</time></trkpt><trkpt lat="21.82639395997537" lon="100.48409335311035"><ele>1417.1666666666667</ele><time>2026-03-29T06:08:35.001Z</time></trkpt><trkpt lat="21.826379548431145" lon="100.48417825519772"><ele>1419.0</ele><time>2026-03-29T06:08:36.001Z</time></trkpt><trkpt lat="21.826364939032615" lon="100.48427089822634"><ele>1419.0</ele><time>2026-03-29T06:08:37.001Z</time></trkpt><trkpt lat="21.826355502034193" lon="100.48437762355992"><ele>1419.0</ele><time>2026-03-29T06:08:38.001Z</time></trkpt><trkpt lat="21.826342908209657" lon="100.48446868678937"><ele>1419.0</ele><time>2026-03-29T06:08:39.001Z</time></trkpt><trkpt lat="21.826330892984416" lon="100.4845690574497"><ele>1419.0</ele><time>2026-03-29T06:08:40.001Z</time></trkpt><trkpt lat="21.826324275253643" lon="100.48468085866699"><ele>1419.0</ele><time>2026-03-29T06:08:41.001Z</time></trkpt><trkpt lat="21.826321548701" lon="100.48479414300168"><ele>1419.6</ele><time>2026-03-29T06:08:42.001Z</time></trkpt><trkpt lat="21.8262936929758" lon="100.48489920996116"><ele>1420.2</ele><time>2026-03-29T06:08:43.001Z</time></trkpt><trkpt lat="21.826258022604392" lon="100.48499212453531"><ele>1420.8</ele><time>2026-03-29T06:08:44.001Z</time></trkpt><trkpt lat="21.826217107040268" lon="100.4850770743394"><ele>1421.3999999999999</ele><time>2026-03-29T06:08:45.001Z</time></trkpt><trkpt lat="21.82619857027422" lon="100.48515880905494"><ele>1422.0</ele><time>2026-03-29T06:08:46.001Z</time></trkpt><trkpt lat="21.826178538699388" lon="100.48525647695921"><ele>1422.0</ele><time>2026-03-29T06:08:46.999Z</time></trkpt><trkpt lat="21.826154130625063" lon="100.48535276530838"><ele>1422.0</ele><time>2026-03-29T06:08:47.999Z</time></trkpt><trkpt lat="21.826119566823134" lon="100.48544789697124"><ele>1422.0</ele><time>2026-03-29T06:08:48.999Z</time></trkpt><trkpt lat="21.826101175712576" lon="100.48552073764733"><ele>1422.0</ele><time>2026-03-29T06:08:49.999Z</time></trkpt><trkpt lat="21.8260574448368" lon="100.48558823783215"><ele>1422.0</ele><time>2026-03-29T06:08:50.999Z</time></trkpt><trkpt lat="21.826024123778303" lon="100.4856519230595"><ele>1422.0</ele><time>2026-03-29T06:08:51.999Z</time></trkpt><trkpt lat="21.825993897974975" lon="100.48575466044939"><ele>1423.0</ele><time>2026-03-29T06:08:53.999Z</time></trkpt><trkpt lat="21.825995722526493" lon="100.48582368209969"><ele>1424.0</ele><time>2026-03-29T06:08:54.999Z</time></trkpt><trkpt lat="21.826007175154132" lon="100.48596126376859"><ele>1425.0</ele><time>2026-03-29T06:08:57Z</time></trkpt><trkpt lat="21.826006176593584" lon="100.48603376606277"><ele>1426.0</ele><time>2026-03-29T06:08:58Z</time></trkpt><trkpt lat="21.825999372005555" lon="100.48611116288583"><ele>1427.0</ele><time>2026-03-29T06:08:59Z</time></trkpt><trkpt lat="21.82597744609997" lon="100.4861881717861"><ele>1428.0</ele><time>2026-03-29T06:09:00Z</time></trkpt><trkpt lat="21.82595577087369" lon="100.48625703949088"><ele>1432.4285714285713</ele><time>2026-03-29T06:09:01Z</time></trkpt><trkpt lat="21.825944779506436" lon="100.48633274776265"><ele>1436.857142857143</ele><time>2026-03-29T06:09:02Z</time></trkpt><trkpt lat="21.825923254881364" lon="100.48641114146191"><ele>1441.2857142857142</ele><time>2026-03-29T06:09:03Z</time></trkpt><trkpt lat="21.825892390986038" lon="100.48648650600803"><ele>1445.7142857142858</ele><time>2026-03-29T06:09:04Z</time></trkpt><trkpt lat="21.825855281473736" lon="100.48655682450787"><ele>1450.142857142857</ele><time>2026-03-29T06:09:05Z</time></trkpt><trkpt lat="21.82582588922553" lon="100.48662397923225"><ele>1454.5714285714284</ele><time>2026-03-29T06:09:06Z</time></trkpt><trkpt lat="21.825785890992446" lon="100.48667655851513"><ele>1459.0</ele><time>2026-03-29T06:09:07Z</time></trkpt><trkpt lat="21.825732557420288" lon="100.4867324340114"><ele>1459.0</ele><time>2026-03-29T06:09:08Z</time></trkpt><trkpt lat="21.825682266008332" lon="100.486777013042"><ele>1459.0</ele><time>2026-03-29T06:09:09Z</time></trkpt><trkpt lat="21.825618925677183" lon="100.48680937228191"><ele>1459.0</ele><time>2026-03-29T06:09:10Z</time></trkpt><trkpt lat="21.825551937578652" lon="100.48683731061617"><ele>1459.0</ele><time>2026-03-29T06:09:11Z</time></trkpt><trkpt lat="21.825475965396823" lon="100.48685854808322"><ele>1459.0</ele><time>2026-03-29T06:09:12Z</time></trkpt><trkpt lat="21.82535602158896" lon="100.48688909065618"><ele>1459.0</ele><time>2026-03-29T06:09:14Z</time></trkpt><trkpt lat="21.825300902615638" lon="100.48694123125215"><ele>1459.0</ele><time>2026-03-29T06:09:16Z</time></trkpt><trkpt lat="21.825244033464436" lon="100.48701736939658"><ele>1459.0</ele><time>2026-03-29T06:09:18Z</time></trkpt><trkpt lat="21.825195105725868" lon="100.48710855413161"><ele>1459.0</ele><time>2026-03-29T06:09:20Z</time></trkpt><trkpt lat="21.825129994488844" lon="100.48720181547513"><ele>1459.0</ele><time>2026-03-29T06:09:22Z</time></trkpt><trkpt lat="21.825040500368054" lon="100.48730328850522"><ele>1459.0</ele><time>2026-03-29T06:09:24Z</time></trkpt><trkpt lat="21.82493605214558" lon="100.48737234358317"><ele>1461.8000000000002</ele><time>2026-03-29T06:09:26Z</time></trkpt><trkpt lat="21.824841434349505" lon="100.48743043586205"><ele>1464.6000000000001</ele><time>2026-03-29T06:09:28Z</time></trkpt><trkpt lat="21.824748042334207" lon="100.48751461712685"><ele>1467.4</ele><time>2026-03-29T06:09:30Z</time></trkpt><trkpt lat="21.824697528316513" lon="100.48764238085754"><ele>1470.2</ele><time>2026-03-29T06:09:32Z</time></trkpt><trkpt lat="21.82468657613077" lon="100.48772014000986"><ele>1473.0</ele><time>2026-03-29T06:09:33Z</time></trkpt><trkpt lat="21.824683620306494" lon="100.48779998449245"><ele>1472.9999999999998</ele><time>2026-03-29T06:09:34Z</time></trkpt><trkpt lat="21.824690610215203" lon="100.48787543776288"><ele>1473.0</ele><time>2026-03-29T06:09:35Z</time></trkpt><trkpt lat="21.824714773353037" lon="100.48794610968699"><ele>1473.0</ele><time>2026-03-29T06:09:36Z</time></trkpt><trkpt lat="21.82475241904735" lon="100.48801773066972"><ele>1473.0</ele><time>2026-03-29T06:09:37Z</time></trkpt><trkpt lat="21.824799555969708" lon="100.48807418633704"><ele>1473.0</ele><time>2026-03-29T06:09:38Z</time></trkpt><trkpt lat="21.82484581348682" lon="100.48813517747118"><ele>1472.9999999999998</ele><time>2026-03-29T06:09:39Z</time></trkpt><trkpt lat="21.82488991933512" lon="100.48819906124486"><ele>1473.0</ele><time>2026-03-29T06:09:40Z</time></trkpt><trkpt lat="21.82493213618529" lon="100.48825653393322"><ele>1473.0</ele><time>2026-03-29T06:09:41Z</time></trkpt><trkpt lat="21.82497908855158" lon="100.48831234528608"><ele>1473.0</ele><time>2026-03-29T06:09:42Z</time></trkpt><trkpt lat="21.824992951089346" lon="100.48841115492301"><ele>1473.0</ele><time>2026-03-29T06:09:44Z</time></trkpt><trkpt lat="21.824947327155943" lon="100.48852635048641"><ele>1473.0</ele><time>2026-03-29T06:09:46Z</time></trkpt><trkpt lat="21.82492211435506" lon="100.48858902450172"><ele>1473.0</ele><time>2026-03-29T06:09:47.001Z</time></trkpt><trkpt lat="21.824880737675414" lon="100.48865859603413"><ele>1473.0</ele><time>2026-03-29T06:09:48.001Z</time></trkpt><trkpt lat="21.82482185156827" lon="100.4887176635734"><ele>1472.2</ele><time>2026-03-29T06:09:49.001Z</time></trkpt><trkpt lat="21.824765597626584" lon="100.48877584228667"><ele>1471.4</ele><time>2026-03-29T06:09:50.001Z</time></trkpt><trkpt lat="21.824650640114005" lon="100.48883484770114"><ele>1470.6000000000001</ele><time>2026-03-29T06:09:52.001Z</time></trkpt><trkpt lat="21.82454083581404" lon="100.48891121057666"><ele>1469.8000000000002</ele><time>2026-03-29T06:09:54.001Z</time></trkpt><trkpt lat="21.824486367974682" lon="100.48895710066009"><ele>1469.0</ele><time>2026-03-29T06:09:55.001Z</time></trkpt><trkpt lat="21.824428279873036" lon="100.48900123925789"><ele>1469.0</ele><time>2026-03-29T06:09:56.001Z</time></trkpt><trkpt lat="21.824365792245775" lon="100.4890408053809"><ele>1469.0</ele><time>2026-03-29T06:09:57.001Z</time></trkpt><trkpt lat="21.824301170491694" lon="100.48907834541129"><ele>1469.0</ele><time>2026-03-29T06:09:58.001Z</time></trkpt><trkpt lat="21.824230243415435" lon="100.48911253736104"><ele>1469.0</ele><time>2026-03-29T06:09:59.001Z</time></trkpt><trkpt lat="21.824166336033723" lon="100.48914309888686"><ele>1469.0</ele><time>2026-03-29T06:10:00.001Z</time></trkpt><trkpt lat="21.824071638178516" lon="100.48919828511248"><ele>1469.0</ele><time>2026-03-29T06:10:02.001Z</time></trkpt><trkpt lat="21.823971504283488" lon="100.48927315405892"><ele>1470.0</ele><time>2026-03-29T06:10:04.001Z</time></trkpt><trkpt lat="21.82392910429608" lon="100.48932346787309"><ele>1471.0</ele><time>2026-03-29T06:10:05.001Z</time></trkpt><trkpt lat="21.823892560068522" lon="100.48938286678862"><ele>1472.0</ele><time>2026-03-29T06:10:06.001Z</time></trkpt><trkpt lat="21.82386536752263" lon="100.48944437186744"><ele>1473.0</ele><time>2026-03-29T06:10:07.001Z</time></trkpt><trkpt lat="21.82384486105192" lon="100.48951574438927"><ele>1474.0</ele><time>2026-03-29T06:10:08.001Z</time></trkpt><trkpt lat="21.823841433237643" lon="100.48965454354392"><ele>1475.0</ele><time>2026-03-29T06:10:10.001Z</time></trkpt><trkpt lat="21.82384045306051" lon="100.48972805790474"><ele>1475.0</ele><time>2026-03-29T06:10:11.001Z</time></trkpt><trkpt lat="21.82383420003995" lon="100.48980411461518"><ele>1475.0</ele><time>2026-03-29T06:10:12.001Z</time></trkpt><trkpt lat="21.82382553822268" lon="100.48988212653983"><ele>1475.0</ele><time>2026-03-29T06:10:13.001Z</time></trkpt><trkpt lat="21.823823712866925" lon="100.48995153884599"><ele>1475.0</ele><time>2026-03-29T06:10:14.001Z</time></trkpt><trkpt lat="21.823795043672625" lon="100.49003243492702"><ele>1475.0</ele><time>2026-03-29T06:10:15.001Z</time></trkpt><trkpt lat="21.823771061588648" lon="100.49010070374169"><ele>1475.0</ele><time>2026-03-29T06:10:16.001Z</time></trkpt><trkpt lat="21.823736748732767" lon="100.4901633346678"><ele>1475.0</ele><time>2026-03-29T06:10:17.001Z</time></trkpt><trkpt lat="21.823692593188326" lon="100.49021651714777"><ele>1475.0</ele><time>2026-03-29T06:10:18.001Z</time></trkpt><trkpt lat="21.823642058519493" lon="100.49026121269718"><ele>1475.0</ele><time>2026-03-29T06:10:19.001Z</time></trkpt><trkpt lat="21.82357789402529" lon="100.49028530380369"><ele>1475.0</ele><time>2026-03-29T06:10:20.001Z</time></trkpt><trkpt lat="21.82346449161983" lon="100.49033612749693"><ele>1475.0</ele><time>2026-03-29T06:10:22.001Z</time></trkpt><trkpt lat="21.823405102944218" lon="100.49036237370703"><ele>1475.0</ele><time>2026-03-29T06:10:23.001Z</time></trkpt><trkpt lat="21.823349230153486" lon="100.49040118023497"><ele>1475.0</ele><time>2026-03-29T06:10:24.001Z</time></trkpt><trkpt lat="21.823250564175982" lon="100.49048460518131"><ele>1479.142857142857</ele><time>2026-03-29T06:10:26.001Z</time></trkpt><trkpt lat="21.823208523337392" lon="100.49053862766272"><ele>1483.2857142857144</ele><time>2026-03-29T06:10:27.001Z</time></trkpt><trkpt lat="21.823180539021553" lon="100.49060126441441"><ele>1487.4285714285716</ele><time>2026-03-29T06:10:28.001Z</time></trkpt><trkpt lat="21.823159868350483" lon="100.49066919645611"><ele>1491.5714285714284</ele><time>2026-03-29T06:10:29.001Z</time></trkpt><trkpt lat="21.823137549645093" lon="100.4907354557883"><ele>1495.7142857142858</ele><time>2026-03-29T06:10:30.001Z</time></trkpt><trkpt lat="21.82311479566252" lon="100.49081227063675"><ele>1499.857142857143</ele><time>2026-03-29T06:10:31.001Z</time></trkpt><trkpt lat="21.823110748209423" lon="100.49093255699044"><ele>1504.0</ele><time>2026-03-29T06:10:33.001Z</time></trkpt><trkpt lat="21.823123116397454" lon="100.49100044166242"><ele>1504.0</ele><time>2026-03-29T06:10:34.001Z</time></trkpt><trkpt lat="21.823143004454366" lon="100.49113455073291"><ele>1504.0</ele><time>2026-03-29T06:10:36.001Z</time></trkpt><trkpt lat="21.82314685720957" lon="100.4912029502064"><ele>1504.0</ele><time>2026-03-29T06:10:37.001Z</time></trkpt><trkpt lat="21.823164462387847" lon="100.49127380001309"><ele>1504.0</ele><time>2026-03-29T06:10:38.001Z</time></trkpt><trkpt lat="21.823162486775754" lon="100.49135426265043"><ele>1504.0</ele><time>2026-03-29T06:10:39.001Z</time></trkpt><trkpt lat="21.823152219706955" lon="100.49144195144304"><ele>1504.0</ele><time>2026-03-29T06:10:40.001Z</time></trkpt><trkpt lat="21.823136012768025" lon="100.49152547187286"><ele>1505.3333333333333</ele><time>2026-03-29T06:10:41.001Z</time></trkpt><trkpt lat="21.823107542047534" lon="100.49161264897099"><ele>1506.6666666666665</ele><time>2026-03-29T06:10:42.001Z</time></trkpt><trkpt lat="21.823067133407104" lon="100.49168614458603"><ele>1508.0</ele><time>2026-03-29T06:10:43.001Z</time></trkpt><trkpt lat="21.823027207309643" lon="100.49175836803936"><ele>1509.3333333333333</ele><time>2026-03-29T06:10:44.001Z</time></trkpt><trkpt lat="21.822982721686664" lon="100.4918235002024"><ele>1510.6666666666667</ele><time>2026-03-29T06:10:45.001Z</time></trkpt><trkpt lat="21.82292243567936" lon="100.49187041001524"><ele>1512.0</ele><time>2026-03-29T06:10:46.001Z</time></trkpt><trkpt lat="21.8228462803324" lon="100.49190814180159"><ele>1512.0</ele><time>2026-03-29T06:10:47.001Z</time></trkpt><trkpt lat="21.82277571890648" lon="100.49193033174767"><ele>1512.0</ele><time>2026-03-29T06:10:48.001Z</time></trkpt><trkpt lat="21.82270713394835" lon="100.49195630178951"><ele>1512.0</ele><time>2026-03-29T06:10:49.001Z</time></trkpt><trkpt lat="21.822638401902346" lon="100.49200027624266"><ele>1512.0</ele><time>2026-03-29T06:10:50.001Z</time></trkpt><trkpt lat="21.82257611734366" lon="100.49205334198413"><ele>1512.0</ele><time>2026-03-29T06:10:51.001Z</time></trkpt><trkpt lat="21.822519531646662" lon="100.49211492464512"><ele>1512.0</ele><time>2026-03-29T06:10:52.001Z</time></trkpt><trkpt lat="21.82246830907018" lon="100.49217666768436"><ele>1514.4285714285713</ele><time>2026-03-29T06:10:53.001Z</time></trkpt><trkpt lat="21.822417023178243" lon="100.49224555360902"><ele>1516.857142857143</ele><time>2026-03-29T06:10:54.001Z</time></trkpt><trkpt lat="21.82237449148774" lon="100.49230231967351"><ele>1519.2857142857142</ele><time>2026-03-29T06:10:55.001Z</time></trkpt><trkpt lat="21.82232405820856" lon="100.49236033931801"><ele>1521.7142857142858</ele><time>2026-03-29T06:10:56.001Z</time></trkpt><trkpt lat="21.822279677795706" lon="100.49242725202787"><ele>1524.142857142857</ele><time>2026-03-29T06:10:57.001Z</time></trkpt><trkpt lat="21.82222875180205" lon="100.49248100475074"><ele>1526.5714285714284</ele><time>2026-03-29T06:10:58.001Z</time></trkpt><trkpt lat="21.82217512151128" lon="100.49252341063138"><ele>1529.0</ele><time>2026-03-29T06:10:59.001Z</time></trkpt><trkpt lat="21.822071445607776" lon="100.49257464527093"><ele>1529.0</ele><time>2026-03-29T06:11:01.001Z</time></trkpt><trkpt lat="21.822000890607384" lon="100.4925978596487"><ele>1529.0</ele><time>2026-03-29T06:11:03Z</time></trkpt><trkpt lat="21.821933241315254" lon="100.49261882187929"><ele>1529.0</ele><time>2026-03-29T06:11:05Z</time></trkpt><trkpt lat="21.821849672665024" lon="100.4926327354711"><ele>1529.0</ele><time>2026-03-29T06:11:07Z</time></trkpt><trkpt lat="21.82177409967907" lon="100.49265939818386"><ele>1529.0</ele><time>2026-03-29T06:11:09Z</time></trkpt><trkpt lat="21.821682298479615" lon="100.49273973858364"><ele>1529.0</ele><time>2026-03-29T06:11:11Z</time></trkpt><trkpt lat="21.821622917165836" lon="100.49280249162976"><ele>1528.0</ele><time>2026-03-29T06:11:12Z</time></trkpt><trkpt lat="21.82154552588845" lon="100.4928611537794"><ele>1527.0</ele><time>2026-03-29T06:11:13Z</time></trkpt><trkpt lat="21.82149235300638" lon="100.49291603823254"><ele>1526.0</ele><time>2026-03-29T06:11:14Z</time></trkpt><trkpt lat="21.82144455954516" lon="100.49297276353597"><ele>1525.0</ele><time>2026-03-29T06:11:15Z</time></trkpt><trkpt lat="21.82135295861875" lon="100.49308812386069"><ele>1524.0</ele><time>2026-03-29T06:11:17Z</time></trkpt><trkpt lat="21.821285866545775" lon="100.49314075086096"><ele>1523.8000000000002</ele><time>2026-03-29T06:11:18Z</time></trkpt><trkpt lat="21.821215358143977" lon="100.49317760561725"><ele>1523.6000000000001</ele><time>2026-03-29T06:11:19.001Z</time></trkpt><trkpt lat="21.82111544826726" lon="100.49326047824604"><ele>1523.4</ele><time>2026-03-29T06:11:21.001Z</time></trkpt><trkpt lat="21.821038202358018" lon="100.49337247509507"><ele>1523.2</ele><time>2026-03-29T06:11:23.001Z</time></trkpt><trkpt lat="21.820991051411106" lon="100.49341843503039"><ele>1523.0</ele><time>2026-03-29T06:11:24.001Z</time></trkpt><trkpt lat="21.82093693095197" lon="100.49348346890412"><ele>1524.2</ele><time>2026-03-29T06:11:25.001Z</time></trkpt><trkpt lat="21.820894116709436" lon="100.49354012075273"><ele>1525.4</ele><time>2026-03-29T06:11:26.001Z</time></trkpt><trkpt lat="21.820835846363927" lon="100.4936307098764"><ele>1526.6000000000001</ele><time>2026-03-29T06:11:27.001Z</time></trkpt><trkpt lat="21.820736809269373" lon="100.49366782985149"><ele>1527.8000000000002</ele><time>2026-03-29T06:11:28.001Z</time></trkpt><trkpt lat="21.82067767519754" lon="100.49373236556893"><ele>1529.0</ele><time>2026-03-29T06:11:29.001Z</time></trkpt><trkpt lat="21.820610921510802" lon="100.49381743256889"><ele>1529.7142857142856</ele><time>2026-03-29T06:11:31.001Z</time></trkpt><trkpt lat="21.82054876722797" lon="100.49384230029128"><ele>1530.4285714285713</ele><time>2026-03-29T06:11:33.001Z</time></trkpt><trkpt lat="21.820551460347065" lon="100.49393171886184"><ele>1531.142857142857</ele><time>2026-03-29T06:12:00.001Z</time></trkpt><trkpt lat="21.820508585988016" lon="100.49402566579033"><ele>1531.8571428571427</ele><time>2026-03-29T06:12:02.001Z</time></trkpt><trkpt lat="21.82048732575781" lon="100.4940903576986"><ele>1532.5714285714287</ele><time>2026-03-29T06:12:03.001Z</time></trkpt><trkpt lat="21.820460545152653" lon="100.4941560359608"><ele>1533.2857142857142</ele><time>2026-03-29T06:12:04.001Z</time></trkpt><trkpt lat="21.820439978589768" lon="100.49422857195533"><ele>1534.0</ele><time>2026-03-29T06:12:05.001Z</time></trkpt><trkpt lat="21.820415376766825" lon="100.49429218692009"><ele>1534.0</ele><time>2026-03-29T06:12:06.001Z</time></trkpt><trkpt lat="21.820354399652146" lon="100.49441015323015"><ele>1534.0</ele><time>2026-03-29T06:12:08.001Z</time></trkpt><trkpt lat="21.820327702994604" lon="100.49448834543598"><ele>1534.0</ele><time>2026-03-29T06:12:09.001Z</time></trkpt><trkpt lat="21.82029109586363" lon="100.4945772056908"><ele>1534.0</ele><time>2026-03-29T06:12:10.001Z</time></trkpt><trkpt lat="21.820223575383586" lon="100.49468926405265"><ele>1534.0</ele><time>2026-03-29T06:12:12.001Z</time></trkpt><trkpt lat="21.820171442028666" lon="100.49475891994008"><ele>1535.8333333333333</ele><time>2026-03-29T06:12:13.001Z</time></trkpt><trkpt lat="21.82011843935941" lon="100.49481295334925"><ele>1537.6666666666665</ele><time>2026-03-29T06:12:14.001Z</time></trkpt><trkpt lat="21.820066794596435" lon="100.49488140534524"><ele>1539.5</ele><time>2026-03-29T06:12:15.001Z</time></trkpt><trkpt lat="21.82002213874658" lon="100.49493840268697"><ele>1541.3333333333333</ele><time>2026-03-29T06:12:16.001Z</time></trkpt><trkpt lat="21.81996012998555" lon="100.49498987309678"><ele>1543.1666666666667</ele><time>2026-03-29T06:12:17.001Z</time></trkpt><trkpt lat="21.819909456154022" lon="100.49505076531806"><ele>1545.0</ele><time>2026-03-29T06:12:18.001Z</time></trkpt><trkpt lat="21.819849309711884" lon="100.4951028412001"><ele>1545.0</ele><time>2026-03-29T06:12:19.001Z</time></trkpt><trkpt lat="21.81978076122082" lon="100.49514375379056"><ele>1545.0</ele><time>2026-03-29T06:12:20.001Z</time></trkpt><trkpt lat="21.819720257952614" lon="100.49518303846747"><ele>1545.0</ele><time>2026-03-29T06:12:21.001Z</time></trkpt><trkpt lat="21.81964744518481" lon="100.49521338984908"><ele>1545.0</ele><time>2026-03-29T06:12:22.001Z</time></trkpt><trkpt lat="21.819584782501774" lon="100.49525613030184"><ele>1545.0</ele><time>2026-03-29T06:12:23.001Z</time></trkpt><trkpt lat="21.819516350951204" lon="100.49529122028719"><ele>1545.0</ele><time>2026-03-29T06:12:24.001Z</time></trkpt><trkpt lat="21.819455251566836" lon="100.49533489212843"><ele>1545.0</ele><time>2026-03-29T06:12:25.001Z</time></trkpt><trkpt lat="21.819412953137775" lon="100.49540271423501"><ele>1545.0</ele><time>2026-03-29T06:12:26.001Z</time></trkpt><trkpt lat="21.819373589951688" lon="100.49547631455096"><ele>1545.0</ele><time>2026-03-29T06:12:27.001Z</time></trkpt><trkpt lat="21.81934251807104" lon="100.49555381014837"><ele>1545.0</ele><time>2026-03-29T06:12:28.001Z</time></trkpt><trkpt lat="21.819329643685908" lon="100.4956371723465"><ele>1545.0</ele><time>2026-03-29T06:12:29.001Z</time></trkpt><trkpt lat="21.819305932015414" lon="100.4957638305964"><ele>1545.0</ele><time>2026-03-29T06:12:31.001Z</time></trkpt><trkpt lat="21.81925364144923" lon="100.4958626871194"><ele>1546.6</ele><time>2026-03-29T06:12:33.001Z</time></trkpt><trkpt lat="21.819186607905355" lon="100.4959442923127"><ele>1548.2</ele><time>2026-03-29T06:12:35.001Z</time></trkpt><trkpt lat="21.819138159942117" lon="100.49600132046145"><ele>1549.8000000000002</ele><time>2026-03-29T06:12:37.001Z</time></trkpt><trkpt lat="21.819088562920182" lon="100.49606064531919"><ele>1551.4</ele><time>2026-03-29T06:12:39.001Z</time></trkpt><trkpt lat="21.818979022369586" lon="100.49614910155749"><ele>1553.0</ele><time>2026-03-29T06:12:42.001Z</time></trkpt><trkpt lat="21.818907769507184" lon="100.49620324373056"><ele>1552.9999999999998</ele><time>2026-03-29T06:12:43.001Z</time></trkpt><trkpt lat="21.818804734162242" lon="100.49624880230141"><ele>1553.0</ele><time>2026-03-29T06:12:44.001Z</time></trkpt><trkpt lat="21.81874531414765" lon="100.49620949590542"><ele>1553.0</ele><time>2026-03-29T06:12:45.001Z</time></trkpt><trkpt lat="21.818623204703215" lon="100.49620107752295"><ele>1553.0</ele><time>2026-03-29T06:12:47.002Z</time></trkpt><trkpt lat="21.818562932395345" lon="100.49617784572264"><ele>1552.9999999999998</ele><time>2026-03-29T06:12:48.002Z</time></trkpt><trkpt lat="21.818491006675654" lon="100.49618883889195"><ele>1553.0</ele><time>2026-03-29T06:12:49.002Z</time></trkpt><trkpt lat="21.818449679771184" lon="100.49625960949193"><ele>1556.8333333333333</ele><time>2026-03-29T06:12:51.002Z</time></trkpt><trkpt lat="21.818497981223068" lon="100.49634730050214"><ele>1560.6666666666665</ele><time>2026-03-29T06:12:53.002Z</time></trkpt><trkpt lat="21.81853502182134" lon="100.4964143077966"><ele>1564.5</ele><time>2026-03-29T06:12:54.002Z</time></trkpt><trkpt lat="21.818587111350343" lon="100.4964542746264"><ele>1568.3333333333335</ele><time>2026-03-29T06:12:55.002Z</time></trkpt><trkpt lat="21.818675732017727" lon="100.49653766571568"><ele>1572.1666666666667</ele><time>2026-03-29T06:12:57.002Z</time></trkpt><trkpt lat="21.818727115669894" lon="100.49659337843485"><ele>1576.0</ele><time>2026-03-29T06:12:58.002Z</time></trkpt><trkpt lat="21.81877269265718" lon="100.49664405119107"><ele>1576.0</ele><time>2026-03-29T06:12:59.001Z</time></trkpt><trkpt lat="21.818839071770338" lon="100.49675103538547"><ele>1576.0</ele><time>2026-03-29T06:13:01.001Z</time></trkpt><trkpt lat="21.818765459332774" lon="100.49690312227173"><ele>1576.0</ele><time>2026-03-29T06:13:03.001Z</time></trkpt><trkpt lat="21.818676648440405" lon="100.49694584999686"><ele>1576.0</ele><time>2026-03-29T06:13:05.001Z</time></trkpt><trkpt lat="21.818585254617723" lon="100.49696138288917"><ele>1576.0</ele><time>2026-03-29T06:13:07.001Z</time></trkpt><trkpt lat="21.81852293235794" lon="100.49698083829549"><ele>1576.0</ele><time>2026-03-29T06:13:09.001Z</time></trkpt><trkpt lat="21.818454438279073" lon="100.49708465687605"><ele>1576.0</ele><time>2026-03-29T06:13:11.001Z</time></trkpt><trkpt lat="21.818403076185902" lon="100.49718534364746"><ele>1576.0</ele><time>2026-03-29T06:13:13.001Z</time></trkpt><trkpt lat="21.818371979149568" lon="100.49730085664613"><ele>1576.0</ele><time>2026-03-29T06:13:15.001Z</time></trkpt><trkpt lat="21.818334812470063" lon="100.49741579576634"><ele>1579.6</ele><time>2026-03-29T06:13:17.001Z</time></trkpt><trkpt lat="21.8182911481205" lon="100.49750910112385"><ele>1583.1999999999998</ele><time>2026-03-29T06:13:19.001Z</time></trkpt><trkpt lat="21.81823133905455" lon="100.49758871887974"><ele>1586.8000000000002</ele><time>2026-03-29T06:13:21.001Z</time></trkpt><trkpt lat="21.81816960207078" lon="100.49767304781751"><ele>1590.4</ele><time>2026-03-29T06:13:23.001Z</time></trkpt><trkpt lat="21.81810443389549" lon="100.49776428000854"><ele>1594.0</ele><time>2026-03-29T06:13:25.001Z</time></trkpt><trkpt lat="21.818032643552478" lon="100.49785540278063"><ele>1596.2</ele><time>2026-03-29T06:13:27.001Z</time></trkpt><trkpt lat="21.817983297704714" lon="100.49796827311474"><ele>1598.4</ele><time>2026-03-29T06:13:29.001Z</time></trkpt><trkpt lat="21.81793845653241" lon="100.49806529862649"><ele>1600.6</ele><time>2026-03-29T06:13:30.001Z</time></trkpt><trkpt lat="21.81791822673204" lon="100.49816956536235"><ele>1602.8</ele><time>2026-03-29T06:13:32.001Z</time></trkpt><trkpt lat="21.81784848275848" lon="100.49824530405866"><ele>1605.0</ele><time>2026-03-29T06:13:35.001Z</time></trkpt><trkpt lat="21.817843239877032" lon="100.4983245130166"><ele>1605.0</ele><time>2026-03-29T06:13:37.001Z</time></trkpt><trkpt lat="21.817755122921206" lon="100.49838325585884"><ele>1605.0</ele><time>2026-03-29T06:13:39.001Z</time></trkpt><trkpt lat="21.8176470918454" lon="100.49841361305255"><ele>1605.0</ele><time>2026-03-29T06:13:41.001Z</time></trkpt><trkpt lat="21.817532024780903" lon="100.49843264232119"><ele>1605.0</ele><time>2026-03-29T06:13:43.001Z</time></trkpt><trkpt lat="21.817422524490723" lon="100.49844656059432"><ele>1605.0</ele><time>2026-03-29T06:13:45.001Z</time></trkpt><trkpt lat="21.8173211164731" lon="100.49848020105728"><ele>1607.3333333333333</ele><time>2026-03-29T06:13:47.001Z</time></trkpt><trkpt lat="21.817256200528465" lon="100.498554261043"><ele>1609.6666666666665</ele><time>2026-03-29T06:13:49.001Z</time></trkpt><trkpt lat="21.817280904027456" lon="100.49866726891223"><ele>1612.0</ele><time>2026-03-29T06:13:51.001Z</time></trkpt><trkpt lat="21.8173327894117" lon="100.498708179297"><ele>1614.3333333333333</ele><time>2026-03-29T06:13:52.001Z</time></trkpt><trkpt lat="21.817395448428776" lon="100.49874135594415"><ele>1616.6666666666665</ele><time>2026-03-29T06:13:53.001Z</time></trkpt><trkpt lat="21.81746023281359" lon="100.4987734282221"><ele>1619.0</ele><time>2026-03-29T06:13:54.001Z</time></trkpt><trkpt lat="21.817515430427513" lon="100.4988207087369"><ele>1620.7142857142858</ele><time>2026-03-29T06:13:55.001Z</time></trkpt><trkpt lat="21.817514055733852" lon="100.49889467092763"><ele>1622.4285714285713</ele><time>2026-03-29T06:13:56.001Z</time></trkpt><trkpt lat="21.81747533888715" lon="100.49900519375016"><ele>1624.142857142857</ele><time>2026-03-29T06:13:58.001Z</time></trkpt><trkpt lat="21.81743470962478" lon="100.499062935696"><ele>1625.857142857143</ele><time>2026-03-29T06:13:59.001Z</time></trkpt><trkpt lat="21.8173932312161" lon="100.49911786130968"><ele>1627.5714285714284</ele><time>2026-03-29T06:14:00.001Z</time></trkpt><trkpt lat="21.81736318483931" lon="100.49918291472719"><ele>1629.2857142857142</ele><time>2026-03-29T06:14:01.001Z</time></trkpt><trkpt lat="21.817325851284767" lon="100.49924306497985"><ele>1631.0</ele><time>2026-03-29T06:14:02.001Z</time></trkpt><trkpt lat="21.817282517098903" lon="100.49930927211355"><ele>1631.0</ele><time>2026-03-29T06:14:03.001Z</time></trkpt><trkpt lat="21.817246329331624" lon="100.49937956780882"><ele>1631.0</ele><time>2026-03-29T06:14:04.001Z</time></trkpt><trkpt lat="21.8171946285975" lon="100.49944209515756"><ele>1631.0</ele><time>2026-03-29T06:14:05.001Z</time></trkpt><trkpt lat="21.817097537792282" lon="100.4995188698044"><ele>1631.0</ele><time>2026-03-29T06:14:07.001Z</time></trkpt><trkpt lat="21.817028463053326" lon="100.4996038717059"><ele>1631.0</ele><time>2026-03-29T06:14:09.001Z</time></trkpt><trkpt lat="21.8170365347672" lon="100.49970426706764"><ele>1632.6</ele><time>2026-03-29T06:14:11.001Z</time></trkpt><trkpt lat="21.81707601067315" lon="100.49982622112158"><ele>1634.1999999999998</ele><time>2026-03-29T06:14:13.001Z</time></trkpt><trkpt lat="21.817054472111497" lon="100.49994592006264"><ele>1635.8000000000002</ele><time>2026-03-29T06:14:15.001Z</time></trkpt><trkpt lat="21.817033667112277" lon="100.50006173514898"><ele>1637.4</ele><time>2026-03-29T06:14:17.001Z</time></trkpt><trkpt lat="21.8170128064404" lon="100.50013841666754"><ele>1639.0</ele><time>2026-03-29T06:14:18.001Z</time></trkpt><trkpt lat="21.817002877697984" lon="100.5002063072304"><ele>1639.0</ele><time>2026-03-29T06:14:19.001Z</time></trkpt><trkpt lat="21.817007795579187" lon="100.50027457137762"><ele>1639.0</ele><time>2026-03-29T06:14:20.001Z</time></trkpt><trkpt lat="21.81703789380237" lon="100.50040718259311"><ele>1639.0</ele><time>2026-03-29T06:14:22.001Z</time></trkpt><trkpt lat="21.817016146158167" lon="100.50051509847353"><ele>1639.0</ele><time>2026-03-29T06:14:24.001Z</time></trkpt><trkpt lat="21.816963681198025" lon="100.50063521664806"><ele>1639.0</ele><time>2026-03-29T06:14:26.001Z</time></trkpt><trkpt lat="21.81697570233576" lon="100.50076766897982"><ele>1642.0</ele><time>2026-03-29T06:14:28.001Z</time></trkpt><trkpt lat="21.81700907227121" lon="100.50082605853746"><ele>1645.0</ele><time>2026-03-29T06:14:29.001Z</time></trkpt><trkpt lat="21.817085484219255" lon="100.50093666083832"><ele>1648.0</ele><time>2026-03-29T06:14:31.001Z</time></trkpt><trkpt lat="21.81716183456278" lon="100.50103937936102"><ele>1651.0</ele><time>2026-03-29T06:14:33.001Z</time></trkpt><trkpt lat="21.817234688846224" lon="100.50110880492909"><ele>1654.0</ele><time>2026-03-29T06:14:35.001Z</time></trkpt><trkpt lat="21.81730667472618" lon="100.50117468165715"><ele>1654.0</ele><time>2026-03-29T06:14:37.001Z</time></trkpt><trkpt lat="21.817413545474864" lon="100.50122476866942"><ele>1654.0</ele><time>2026-03-29T06:14:39.001Z</time></trkpt><trkpt lat="21.817539218894584" lon="100.50124015081155"><ele>1654.0</ele><time>2026-03-29T06:14:41.001Z</time></trkpt><trkpt lat="21.817657501465188" lon="100.50125747203263"><ele>1654.0</ele><time>2026-03-29T06:14:43.001Z</time></trkpt><trkpt lat="21.81773021860633" lon="100.50126107105518"><ele>1654.0</ele><time>2026-03-29T06:14:44.001Z</time></trkpt><trkpt lat="21.817795317254472" lon="100.50124939484819"><ele>1653.8333333333335</ele><time>2026-03-29T06:14:45.001Z</time></trkpt><trkpt lat="21.81786817662107" lon="100.50124168540296"><ele>1653.6666666666667</ele><time>2026-03-29T06:14:46.001Z</time></trkpt><trkpt lat="21.817991184170335" lon="100.50130681702505"><ele>1653.5</ele><time>2026-03-29T06:14:48.001Z</time></trkpt><trkpt lat="21.8180499267644" lon="100.50134754693859"><ele>1653.3333333333335</ele><time>2026-03-29T06:14:49.001Z</time></trkpt><trkpt lat="21.818091210229408" lon="100.50140620140046"><ele>1653.1666666666667</ele><time>2026-03-29T06:14:50.001Z</time></trkpt><trkpt lat="21.81812197173693" lon="100.50147942593333"><ele>1653.0</ele><time>2026-03-29T06:14:51.001Z</time></trkpt><trkpt lat="21.818156439796024" lon="100.50154563795607"><ele>1655.4</ele><time>2026-03-29T06:14:52.001Z</time></trkpt><trkpt lat="21.81817250399182" lon="100.5016790727261"><ele>1657.8000000000002</ele><time>2026-03-29T06:14:54.001Z</time></trkpt><trkpt lat="21.81815720296932" lon="100.50174932039705"><ele>1660.2</ele><time>2026-03-29T06:14:55.002Z</time></trkpt><trkpt lat="21.818139354298157" lon="100.50181924388502"><ele>1662.6</ele><time>2026-03-29T06:14:56.002Z</time></trkpt><trkpt lat="21.818105958662137" lon="100.50197631828732"><ele>1665.0</ele><time>2026-03-29T06:14:58.002Z</time></trkpt><trkpt lat="21.818097734438336" lon="100.50208141828845"><ele>1666.2</ele><time>2026-03-29T06:15:00.002Z</time></trkpt><trkpt lat="21.818108515354005" lon="100.50220040274291"><ele>1667.4</ele><time>2026-03-29T06:15:02.002Z</time></trkpt><trkpt lat="21.818096046353247" lon="100.5022899185635"><ele>1668.6</ele><time>2026-03-29T06:15:04.002Z</time></trkpt><trkpt lat="21.81809959172627" lon="100.50237189800696"><ele>1669.8</ele><time>2026-03-29T06:15:06.001Z</time></trkpt><trkpt lat="21.818123311255977" lon="100.50247805287393"><ele>1671.0</ele><time>2026-03-29T06:15:36.001Z</time></trkpt><trkpt lat="21.818171915554217" lon="100.50259129076404"><ele>1671.0</ele><time>2026-03-29T06:15:38.001Z</time></trkpt><trkpt lat="21.818194698787515" lon="100.50265905565777"><ele>1671.0</ele><time>2026-03-29T06:15:39.001Z</time></trkpt><trkpt lat="21.818211572562177" lon="100.50272681591976"><ele>1671.0</ele><time>2026-03-29T06:15:40.001Z</time></trkpt><trkpt lat="21.818201026079343" lon="100.5028525924606"><ele>1671.0</ele><time>2026-03-29T06:15:42.001Z</time></trkpt><trkpt lat="21.818124337280327" lon="100.5029658236249"><ele>1671.0</ele><time>2026-03-29T06:15:44.001Z</time></trkpt><trkpt lat="21.818089734557052" lon="100.50304256368074"><ele>1670.1999999999998</ele><time>2026-03-29T06:15:45.001Z</time></trkpt><trkpt lat="21.81806519057218" lon="100.50311489319236"><ele>1669.3999999999999</ele><time>2026-03-29T06:15:46.001Z</time></trkpt><trkpt lat="21.818026038226847" lon="100.50323504504772"><ele>1668.6</ele><time>2026-03-29T06:15:48.001Z</time></trkpt><trkpt lat="21.818001932013853" lon="100.50334008099222"><ele>1667.8</ele><time>2026-03-29T06:15:50.001Z</time></trkpt><trkpt lat="21.817969713113776" lon="100.50342404496824"><ele>1667.0</ele><time>2026-03-29T06:15:52.001Z</time></trkpt><trkpt lat="21.81789705319561" lon="100.50353048963714"><ele>1667.0</ele><time>2026-03-29T06:15:54.001Z</time></trkpt><trkpt lat="21.81783673780639" lon="100.50361788428486"><ele>1667.0</ele><time>2026-03-29T06:15:56.001Z</time></trkpt><trkpt lat="21.81779738873052" lon="100.50371005949941"><ele>1667.0</ele><time>2026-03-29T06:15:59.001Z</time></trkpt><trkpt lat="21.817770245871436" lon="100.5037929852258"><ele>1667.0</ele><time>2026-03-29T06:16:01.001Z</time></trkpt><trkpt lat="21.81773017276038" lon="100.50388139481647"><ele>1667.0</ele><time>2026-03-29T06:16:03.001Z</time></trkpt><trkpt lat="21.817658234915953" lon="100.50395065288191"><ele>1667.0</ele><time>2026-03-29T06:16:05.001Z</time></trkpt><trkpt lat="21.81756288146252" lon="100.50402523522025"><ele>1667.0</ele><time>2026-03-29T06:16:07.001Z</time></trkpt><trkpt lat="21.81750202454986" lon="100.50404661277364"><ele>1667.0</ele><time>2026-03-29T06:16:08.001Z</time></trkpt><trkpt lat="21.81741471974346" lon="100.50408756827589"><ele>1667.0</ele><time>2026-03-29T06:16:10.001Z</time></trkpt><trkpt lat="21.817335296777504" lon="100.50413247967823"><ele>1667.0</ele><time>2026-03-29T06:16:12.001Z</time></trkpt><trkpt lat="21.81724134388952" lon="100.50420394996397"><ele>1666.9999999999998</ele><time>2026-03-29T06:16:14.001Z</time></trkpt><trkpt lat="21.817189857405374" lon="100.50425628843887"><ele>1667.0</ele><time>2026-03-29T06:16:15.001Z</time></trkpt><trkpt lat="21.81711620757696" lon="100.50437568181812"><ele>1667.0</ele><time>2026-03-29T06:16:17.001Z</time></trkpt><trkpt lat="21.817073540177205" lon="100.50444301556303"><ele>1667.0</ele><time>2026-03-29T06:16:18.001Z</time></trkpt><trkpt lat="21.817029680549158" lon="100.50450377813554"><ele>1666.9999999999998</ele><time>2026-03-29T06:16:19.001Z</time></trkpt><trkpt lat="21.81698653863955" lon="100.50458268527292"><ele>1667.0</ele><time>2026-03-29T06:16:20.001Z</time></trkpt><trkpt lat="21.816941631776764" lon="100.50466549122258"><ele>1666.3333333333333</ele><time>2026-03-29T06:16:21.001Z</time></trkpt><trkpt lat="21.816893842451783" lon="100.50474856236782"><ele>1665.6666666666665</ele><time>2026-03-29T06:16:22.001Z</time></trkpt><trkpt lat="21.816867639042936" lon="100.50483092649094"><ele>1665.0</ele><time>2026-03-29T06:16:23.001Z</time></trkpt><trkpt lat="21.81685224319045" lon="100.50491571400111"><ele>1664.3333333333335</ele><time>2026-03-29T06:16:24.001Z</time></trkpt><trkpt lat="21.81683739187226" lon="100.50501068495078"><ele>1663.6666666666667</ele><time>2026-03-29T06:16:25.001Z</time></trkpt><trkpt lat="21.816826402205635" lon="100.50509265910307"><ele>1663.0</ele><time>2026-03-29T06:16:26.001Z</time></trkpt><trkpt lat="21.81680814707251" lon="100.50517104071017"><ele>1663.0000000000002</ele><time>2026-03-29T06:16:27.001Z</time></trkpt><trkpt lat="21.816795072769537" lon="100.50524719585425"><ele>1663.0</ele><time>2026-03-29T06:16:28.001Z</time></trkpt><trkpt lat="21.81678726824684" lon="100.50532748323486"><ele>1663.0</ele><time>2026-03-29T06:16:29.001Z</time></trkpt><trkpt lat="21.816797620343547" lon="100.50543436775432"><ele>1663.0</ele><time>2026-03-29T06:16:31.001Z</time></trkpt><trkpt lat="21.8168136050094" lon="100.50551552178355"><ele>1663.0000000000002</ele><time>2026-03-29T06:16:33.001Z</time></trkpt><trkpt lat="21.816812444228514" lon="100.50562342322861"><ele>1663.0</ele><time>2026-03-29T06:16:35.001Z</time></trkpt><trkpt lat="21.816800707495627" lon="100.5057193344633"><ele>1663.2</ele><time>2026-03-29T06:16:37.001Z</time></trkpt><trkpt lat="21.816840205395515" lon="100.50585763671674"><ele>1663.4</ele><time>2026-03-29T06:16:40.001Z</time></trkpt><trkpt lat="21.8168387233155" lon="100.5059540895957"><ele>1663.6000000000001</ele><time>2026-03-29T06:16:42.001Z</time></trkpt><trkpt lat="21.81685191901181" lon="100.5060460360136"><ele>1663.8000000000002</ele><time>2026-03-29T06:16:44.001Z</time></trkpt><trkpt lat="21.816834487622746" lon="100.506131747137"><ele>1664.0</ele><time>2026-03-29T06:16:46.001Z</time></trkpt><trkpt lat="21.816784094127087" lon="100.50620233574905"><ele>1667.1666666666665</ele><time>2026-03-29T06:16:48.001Z</time></trkpt><trkpt lat="21.816752076650637" lon="100.50627748630446"><ele>1670.3333333333333</ele><time>2026-03-29T06:16:50.001Z</time></trkpt><trkpt lat="21.816762325951007" lon="100.50637394887558"><ele>1673.5</ele><time>2026-03-29T06:16:52.001Z</time></trkpt><trkpt lat="21.816781297560212" lon="100.50644261538534"><ele>1676.6666666666665</ele><time>2026-03-29T06:16:54.001Z</time></trkpt><trkpt lat="21.81684244178145" lon="100.50649050329616"><ele>1679.8333333333333</ele><time>2026-03-29T06:16:58.001Z</time></trkpt><trkpt lat="21.81689995267557" lon="100.50656467323573"><ele>1683.0</ele><time>2026-03-29T06:17:01.001Z</time></trkpt><trkpt lat="21.817014233129225" lon="100.50662160537038"><ele>1683.0</ele><time>2026-03-29T06:17:03.001Z</time></trkpt><trkpt lat="21.817084767380372" lon="100.50666490713608"><ele>1683.0</ele><time>2026-03-29T06:17:05.001Z</time></trkpt><trkpt lat="21.817167188713032" lon="100.5066781363234"><ele>1683.0</ele><time>2026-03-29T06:17:07.001Z</time></trkpt><trkpt lat="21.817252915410226" lon="100.5066773538563"><ele>1683.0</ele><time>2026-03-29T06:17:09.001Z</time></trkpt><trkpt lat="21.81733134297136" lon="100.50665711641454"><ele>1683.0</ele><time>2026-03-29T06:17:11.001Z</time></trkpt><trkpt lat="21.81740655759678" lon="100.50662940341618"><ele>1683.0</ele><time>2026-03-29T06:17:14.001Z</time></trkpt><trkpt lat="21.817484453083285" lon="100.50662083811274"><ele>1683.0</ele><time>2026-03-29T06:17:17.001Z</time></trkpt><trkpt lat="21.817545680961988" lon="100.50666741037949"><ele>1683.0</ele><time>2026-03-29T06:17:20.001Z</time></trkpt><trkpt lat="21.81754393150755" lon="100.50673542169594"><ele>1683.0</ele><time>2026-03-29T06:17:41Z</time></trkpt><trkpt lat="21.817609020943543" lon="100.50680959328426"><ele>1683.0</ele><time>2026-03-29T06:17:43Z</time></trkpt><trkpt lat="21.81767511624858" lon="100.50687313613253"><ele>1683.0</ele><time>2026-03-29T06:17:45Z</time></trkpt><trkpt lat="21.81773421551768" lon="100.50691018711034"><ele>1683.0</ele><time>2026-03-29T06:17:47Z</time></trkpt><trkpt lat="21.81778287940248" lon="100.50696844924299"><ele>1685.2</ele><time>2026-03-29T06:17:49Z</time></trkpt><trkpt lat="21.817827763177466" lon="100.50702496262956"><ele>1687.4</ele><time>2026-03-29T06:17:51Z</time></trkpt><trkpt lat="21.817896243446153" lon="100.50712612484409"><ele>1689.6000000000001</ele><time>2026-03-29T06:17:55.001Z</time></trkpt><trkpt lat="21.817947918137563" lon="100.50719679668278"><ele>1691.8000000000002</ele><time>2026-03-29T06:17:58.001Z</time></trkpt><trkpt lat="21.818009417257915" lon="100.50732261443557"><ele>1694.0</ele><time>2026-03-29T06:18:01.001Z</time></trkpt><trkpt lat="21.818084554692735" lon="100.50742092649148"><ele>1693.9999999999998</ele><time>2026-03-29T06:18:03.001Z</time></trkpt><trkpt lat="21.818158057705762" lon="100.50750577426325"><ele>1694.0</ele><time>2026-03-29T06:18:05.001Z</time></trkpt><trkpt lat="21.818225930402274" lon="100.50750211770432"><ele>1694.0</ele><time>2026-03-29T06:18:06.001Z</time></trkpt><trkpt lat="21.818306353014012" lon="100.50744484441849"><ele>1694.0</ele><time>2026-03-29T06:18:08.001Z</time></trkpt><trkpt lat="21.81835859959356" lon="100.50739125096285"><ele>1693.9999999999998</ele><time>2026-03-29T06:18:10.001Z</time></trkpt><trkpt lat="21.818415740607232" lon="100.50736242083579"><ele>1694.0</ele><time>2026-03-29T06:18:11.001Z</time></trkpt><trkpt lat="21.818501767248918" lon="100.50732872592347"><ele>1696.0</ele><time>2026-03-29T06:18:13.001Z</time></trkpt><trkpt lat="21.818617415688067" lon="100.50731180010787"><ele>1698.0</ele><time>2026-03-29T06:18:15.001Z</time></trkpt><trkpt lat="21.818704884940743" lon="100.50723825816154"><ele>1700.0</ele><time>2026-03-29T06:18:17.001Z</time></trkpt><trkpt lat="21.81875889240783" lon="100.5071239751871"><ele>1702.0</ele><time>2026-03-29T06:18:19.001Z</time></trkpt><trkpt lat="21.818828755023716" lon="100.50705475726666"><ele>1704.0</ele><time>2026-03-29T06:18:21.001Z</time></trkpt><trkpt lat="21.818904519302965" lon="100.50699556659899"><ele>1703.8000000000002</ele><time>2026-03-29T06:18:23.001Z</time></trkpt><trkpt lat="21.81901117616171" lon="100.50703220729807"><ele>1703.6000000000001</ele><time>2026-03-29T06:18:25.001Z</time></trkpt><trkpt lat="21.81911323218042" lon="100.5070583259575"><ele>1703.4</ele><time>2026-03-29T06:18:27.001Z</time></trkpt><trkpt lat="21.81921143732519" lon="100.50706647535148"><ele>1703.2</ele><time>2026-03-29T06:18:29.001Z</time></trkpt><trkpt lat="21.819324405140627" lon="100.50710006424093"><ele>1703.0</ele><time>2026-03-29T06:18:32.001Z</time></trkpt><trkpt lat="21.81945796154552" lon="100.5071314401401"><ele>1702.9999999999998</ele><time>2026-03-29T06:18:33.001Z</time></trkpt><trkpt lat="21.819555542076444" lon="100.50717984813197"><ele>1703.0</ele><time>2026-03-29T06:18:35.001Z</time></trkpt><trkpt lat="21.81963681258959" lon="100.50723458414784"><ele>1703.0</ele><time>2026-03-29T06:18:37.001Z</time></trkpt><trkpt lat="21.819690128710864" lon="100.50729987954892"><ele>1703.0</ele><time>2026-03-29T06:18:39.001Z</time></trkpt><trkpt lat="21.819732373910018" lon="100.5073774208557"><ele>1702.9999999999998</ele><time>2026-03-29T06:18:41.001Z</time></trkpt><trkpt lat="21.819728027205024" lon="100.507462429291"><ele>1703.0</ele><time>2026-03-29T06:18:43.001Z</time></trkpt><trkpt lat="21.819752288117837" lon="100.50756138898882"><ele>1703.0</ele><time>2026-03-29T06:18:45.001Z</time></trkpt><trkpt lat="21.81982257266622" lon="100.50761600387634"><ele>1703.0</ele><time>2026-03-29T06:18:47.001Z</time></trkpt><trkpt lat="21.81990308774846" lon="100.50763762153221"><ele>1703.0</ele><time>2026-03-29T06:18:49.001Z</time></trkpt><trkpt lat="21.820004255080477" lon="100.50762829928922"><ele>1703.0</ele><time>2026-03-29T06:18:51.001Z</time></trkpt><trkpt lat="21.820066705042127" lon="100.50755056212283"><ele>1703.0</ele><time>2026-03-29T06:18:54.001Z</time></trkpt><trkpt lat="21.820110411249424" lon="100.50744438036935"><ele>1703.0</ele><time>2026-03-29T06:18:56.001Z</time></trkpt><trkpt lat="21.82014935654245" lon="100.5073350624072"><ele>1703.0</ele><time>2026-03-29T06:18:58.001Z</time></trkpt><trkpt lat="21.82016839551199" lon="100.5072184066017"><ele>1703.0</ele><time>2026-03-29T06:19:00.001Z</time></trkpt><trkpt lat="21.820139055279178" lon="100.5071076273606"><ele>1703.0</ele><time>2026-03-29T06:19:02.001Z</time></trkpt><trkpt lat="21.820056882605915" lon="100.50702566943578"><ele>1703.0</ele><time>2026-03-29T06:19:04.001Z</time></trkpt><trkpt lat="21.81996496889522" lon="100.50694483904661"><ele>1700.8000000000002</ele><time>2026-03-29T06:19:06.001Z</time></trkpt><trkpt lat="21.81987997537051" lon="100.50686566148984"><ele>1698.6</ele><time>2026-03-29T06:19:08.001Z</time></trkpt><trkpt lat="21.819810235921526" lon="100.50676816585141"><ele>1696.4</ele><time>2026-03-29T06:19:10.001Z</time></trkpt><trkpt lat="21.81975585160123" lon="100.50666386432631"><ele>1694.1999999999998</ele><time>2026-03-29T06:19:12.001Z</time></trkpt><trkpt lat="21.819750727362923" lon="100.50658844503309"><ele>1692.0</ele><time>2026-03-29T06:19:14.001Z</time></trkpt><trkpt lat="21.819743034601338" lon="100.50649259125258"><ele>1692.0</ele><time>2026-03-29T06:19:17Z</time></trkpt><trkpt lat="21.819757874426774" lon="100.5064250289962"><ele>1692.0</ele><time>2026-03-29T06:19:18Z</time></trkpt><trkpt lat="21.819776704707632" lon="100.5062115914238"><ele>1692.0</ele><time>2026-03-29T06:19:20Z</time></trkpt><trkpt lat="21.819769622005534" lon="100.50613950710881"><ele>1692.0</ele><time>2026-03-29T06:19:21Z</time></trkpt><trkpt lat="21.819787780891794" lon="100.5060667460139"><ele>1692.0</ele><time>2026-03-29T06:19:23Z</time></trkpt><trkpt lat="21.81983195944156" lon="100.50599604883618"><ele>1672.0</ele><time>2026-03-29T06:19:26Z</time></trkpt></trkseg><trkseg><trkpt lat="21.825397058248605" lon="100.5141959482763"><ele>1641.0</ele><time>2026-03-29T06:33:00.999Z</time></trkpt><trkpt lat="21.825313012153956" lon="100.5141967120641"><ele>1641.0</ele><time>2026-03-29T06:33:20Z</time></trkpt><trkpt lat="21.825248047809605" lon="100.51423093437401"><ele>1641.0</ele><time>2026-03-29T06:33:36Z</time></trkpt><trkpt lat="21.824214949220384" lon="100.51443980127176"><ele>1648.8571428571427</ele><time>2026-03-29T06:34:42Z</time></trkpt><trkpt lat="21.824150873394817" lon="100.51444366389786"><ele>1656.7142857142858</ele><time>2026-03-29T06:34:49.999Z</time></trkpt><trkpt lat="21.824100268590104" lon="100.5144998002586"><ele>1664.5714285714284</ele><time>2026-03-29T06:34:52.999Z</time></trkpt><trkpt lat="21.824031515473266" lon="100.51450885957144"><ele>1672.4285714285713</ele><time>2026-03-29T06:34:55.999Z</time></trkpt><trkpt lat="21.82396272169749" lon="100.51452711956854"><ele>1680.2857142857142</ele><time>2026-03-29T06:35:01.999Z</time></trkpt><trkpt lat="21.823918073778987" lon="100.5145843612935"><ele>1688.142857142857</ele><time>2026-03-29T06:35:04.999Z</time></trkpt><trkpt lat="21.82388691692306" lon="100.51465608331124"><ele>1696.0</ele><time>2026-03-29T06:35:08Z</time></trkpt><trkpt lat="21.82383124507295" lon="100.51469720100934"><ele>1697.8333333333335</ele><time>2026-03-29T06:35:11Z</time></trkpt><trkpt lat="21.823768944082964" lon="100.51475270141007"><ele>1699.6666666666667</ele><time>2026-03-29T06:35:14Z</time></trkpt><trkpt lat="21.82373244800514" lon="100.51481773849012"><ele>1701.5</ele><time>2026-03-29T06:35:17Z</time></trkpt><trkpt lat="21.82367919896173" lon="100.51491641373305"><ele>1703.3333333333335</ele><time>2026-03-29T06:35:20Z</time></trkpt><trkpt lat="21.823694403677514" lon="100.51498298983175"><ele>1705.1666666666667</ele><time>2026-03-29T06:35:22Z</time></trkpt><trkpt lat="21.823695872720283" lon="100.51505587173878"><ele>1707.0</ele><time>2026-03-29T06:35:23Z</time></trkpt><trkpt lat="21.823714098365024" lon="100.51517926754934"><ele>1707.0</ele><time>2026-03-29T06:35:25Z</time></trkpt><trkpt lat="21.823711058604545" lon="100.5152522873397"><ele>1707.0</ele><time>2026-03-29T06:35:26Z</time></trkpt><trkpt lat="21.82371184691069" lon="100.51532475805008"><ele>1707.0</ele><time>2026-03-29T06:35:27Z</time></trkpt><trkpt lat="21.82371498551511" lon="100.51539537734273"><ele>1707.0</ele><time>2026-03-29T06:35:28Z</time></trkpt><trkpt lat="21.823699853575626" lon="100.51552948383483"><ele>1707.0</ele><time>2026-03-29T06:35:30Z</time></trkpt><trkpt lat="21.82364498784123" lon="100.51556340983356"><ele>1707.0</ele><time>2026-03-29T06:35:31Z</time></trkpt><trkpt lat="21.823576542294568" lon="100.51562308271205"><ele>1706.75</ele><time>2026-03-29T06:35:33Z</time></trkpt><trkpt lat="21.82348935267579" lon="100.51562143582058"><ele>1706.5</ele><time>2026-03-29T06:35:35Z</time></trkpt><trkpt lat="21.823414020017857" lon="100.51561675412935"><ele>1706.25</ele><time>2026-03-29T06:35:37Z</time></trkpt><trkpt lat="21.823333166834242" lon="100.51559417211645"><ele>1706.0</ele><time>2026-03-29T06:35:40Z</time></trkpt><trkpt lat="21.822164836825948" lon="100.51610619441851"><ele>1715.9999999999998</ele><time>2026-03-29T06:36:42Z</time></trkpt><trkpt lat="21.822152208979375" lon="100.51618597681451"><ele>1726.0</ele><time>2026-03-29T06:36:47Z</time></trkpt><trkpt lat="21.822128242645622" lon="100.51626327720957"><ele>1736.0</ele><time>2026-03-29T06:36:51.001Z</time></trkpt><trkpt lat="21.822067465211152" lon="100.51631429298426"><ele>1746.0</ele><time>2026-03-29T06:36:53.999Z</time></trkpt><trkpt lat="21.821974533651677" lon="100.51630975597509"><ele>1755.9999999999998</ele><time>2026-03-29T06:36:57Z</time></trkpt><trkpt lat="21.821887888293052" lon="100.51630385634935"><ele>1766.0</ele><time>2026-03-29T06:37:00Z</time></trkpt><trkpt lat="21.821804524780266" lon="100.51632427281601"><ele>1770.1428571428573</ele><time>2026-03-29T06:37:03Z</time></trkpt><trkpt lat="21.82172932960409" lon="100.51632846361163"><ele>1774.2857142857142</ele><time>2026-03-29T06:37:06Z</time></trkpt><trkpt lat="21.821664684655254" lon="100.51633291575615"><ele>1778.4285714285716</ele><time>2026-03-29T06:37:09Z</time></trkpt><trkpt lat="21.821592541760484" lon="100.51634143720295"><ele>1782.5714285714287</ele><time>2026-03-29T06:37:13Z</time></trkpt><trkpt lat="21.821529684586736" lon="100.51635684418099"><ele>1786.7142857142858</ele><time>2026-03-29T06:37:18Z</time></trkpt><trkpt lat="21.821468162631085" lon="100.51638069404436"><ele>1790.857142857143</ele><time>2026-03-29T06:37:25Z</time></trkpt><trkpt lat="21.821396516911214" lon="100.51639006149782"><ele>1795.0</ele><time>2026-03-29T06:37:30Z</time></trkpt><trkpt lat="21.82132681211931" lon="100.51642887256061"><ele>1795.0</ele><time>2026-03-29T06:37:35Z</time></trkpt><trkpt lat="21.82125401735416" lon="100.51645625451366"><ele>1795.0</ele><time>2026-03-29T06:37:39Z</time></trkpt><trkpt lat="21.820626699027155" lon="100.51575106110771"><ele>1802.25</ele><time>2026-03-29T06:38:42.001Z</time></trkpt><trkpt lat="21.8206536148761" lon="100.51581886096044"><ele>1809.5</ele><time>2026-03-29T06:39:00Z</time></trkpt><trkpt lat="21.82061972715993" lon="100.51575822011341"><ele>1816.75</ele><time>2026-03-29T06:39:16Z</time></trkpt><trkpt lat="21.820606515013175" lon="100.51568930358441"><ele>1824.0</ele><time>2026-03-29T06:39:23Z</time></trkpt><trkpt lat="21.819436708582955" lon="100.51576398311371"><ele>1814.0</ele><time>2026-03-29T06:41:45Z</time></trkpt><trkpt lat="21.81880369662318" lon="100.51558349991845"><ele>1814.0</ele><time>2026-03-29T06:45:42Z</time></trkpt><trkpt lat="21.818732008912576" lon="100.51555514988836"><ele>1814.0</ele><time>2026-03-29T06:46:26Z</time></trkpt><trkpt lat="21.816645879601655" lon="100.51539340337757"><ele>1818.4</ele><time>2026-03-29T06:50:42Z</time></trkpt><trkpt lat="21.816630247862953" lon="100.51530178968707"><ele>1822.8000000000002</ele><time>2026-03-29T06:50:44Z</time></trkpt><trkpt lat="21.81662048034352" lon="100.51520413951228"><ele>1827.1999999999998</ele><time>2026-03-29T06:50:46Z</time></trkpt><trkpt lat="21.81661573672504" lon="100.51510202248134"><ele>1831.6</ele><time>2026-03-29T06:50:48.001Z</time></trkpt><trkpt lat="21.816532478275228" lon="100.51500545996447"><ele>1836.0</ele><time>2026-03-29T06:50:50.001Z</time></trkpt><trkpt lat="21.816511572765638" lon="100.51494052464616"><ele>1836.0</ele><time>2026-03-29T06:50:52.001Z</time></trkpt><trkpt lat="21.81646489542201" lon="100.51483389138357"><ele>1836.0</ele><time>2026-03-29T06:50:54.001Z</time></trkpt><trkpt lat="21.816445506905627" lon="100.51476914914153"><ele>1836.0</ele><time>2026-03-29T06:50:55.001Z</time></trkpt><trkpt lat="21.81641817474876" lon="100.51465371708296"><ele>1836.0</ele><time>2026-03-29T06:50:57.001Z</time></trkpt><trkpt lat="21.81642640155264" lon="100.51456624079364"><ele>1836.0</ele><time>2026-03-29T06:50:59.001Z</time></trkpt><trkpt lat="21.816460373829052" lon="100.51448965723239"><ele>1836.0</ele><time>2026-03-29T06:51:02.001Z</time></trkpt><trkpt lat="21.816514532826623" lon="100.51439960161707"><ele>1836.75</ele><time>2026-03-29T06:51:04.001Z</time></trkpt><trkpt lat="21.816580057260627" lon="100.5143198492067"><ele>1837.5</ele><time>2026-03-29T06:51:06.001Z</time></trkpt><trkpt lat="21.816645755670827" lon="100.51415396450084"><ele>1838.25</ele><time>2026-03-29T06:51:07.001Z</time></trkpt><trkpt lat="21.816724208285763" lon="100.51405658996859"><ele>1839.0</ele><time>2026-03-29T06:51:09.001Z</time></trkpt><trkpt lat="21.816785889958" lon="100.51398503172788"><ele>1839.25</ele><time>2026-03-29T06:51:11.001Z</time></trkpt><trkpt lat="21.816844966175605" lon="100.51388646831344"><ele>1839.5</ele><time>2026-03-29T06:51:13.001Z</time></trkpt><trkpt lat="21.816898201133874" lon="100.51376400169255"><ele>1839.75</ele><time>2026-03-29T06:51:15.001Z</time></trkpt><trkpt lat="21.816947423924578" lon="100.51364968011602"><ele>1840.0</ele><time>2026-03-29T06:51:17.001Z</time></trkpt><trkpt lat="21.816999610912514" lon="100.51353675592534"><ele>1840.0</ele><time>2026-03-29T06:51:19.001Z</time></trkpt><trkpt lat="21.817028626522376" lon="100.51342462598414"><ele>1840.0</ele><time>2026-03-29T06:51:21.001Z</time></trkpt><trkpt lat="21.817099637000968" lon="100.51339446884431"><ele>1840.0</ele><time>2026-03-29T06:51:23.001Z</time></trkpt><trkpt lat="21.817141102418677" lon="100.51332049214997"><ele>1840.0</ele><time>2026-03-29T06:51:25.001Z</time></trkpt><trkpt lat="21.817214459670595" lon="100.51325813921531"><ele>1840.0</ele><time>2026-03-29T06:51:28.001Z</time></trkpt><trkpt lat="21.817284461323748" lon="100.51314510971063"><ele>1840.0</ele><time>2026-03-29T06:51:30.001Z</time></trkpt><trkpt lat="21.817338075024114" lon="100.51304679751104"><ele>1840.0</ele><time>2026-03-29T06:51:33.001Z</time></trkpt><trkpt lat="21.817361189698182" lon="100.5129666751345"><ele>1840.0</ele><time>2026-03-29T06:51:35Z</time></trkpt><trkpt lat="21.81737380325497" lon="100.51283251737479"><ele>1840.0</ele><time>2026-03-29T06:51:38Z</time></trkpt><trkpt lat="21.817347483661887" lon="100.51271125926576"><ele>1840.0</ele><time>2026-03-29T06:51:41Z</time></trkpt><trkpt lat="21.818548089420005" lon="100.51135098638534"><ele>1831.2</ele><time>2026-03-29T06:52:42Z</time></trkpt><trkpt lat="21.818644599287566" lon="100.51130430807186"><ele>1822.4</ele><time>2026-03-29T06:52:43.001Z</time></trkpt><trkpt lat="21.818731369181837" lon="100.51127532703066"><ele>1813.6</ele><time>2026-03-29T06:52:45.001Z</time></trkpt><trkpt lat="21.818819166335356" lon="100.51123800085774"><ele>1804.8</ele><time>2026-03-29T06:52:47.001Z</time></trkpt><trkpt lat="21.818925268881305" lon="100.5112020998385"><ele>1796.0</ele><time>2026-03-29T06:52:49.001Z</time></trkpt><trkpt lat="21.81901851365601" lon="100.5111596289294"><ele>1796.0</ele><time>2026-03-29T06:52:51.001Z</time></trkpt><trkpt lat="21.81910356089567" lon="100.51109598271306"><ele>1796.0</ele><time>2026-03-29T06:52:53.001Z</time></trkpt><trkpt lat="21.819186625493337" lon="100.51101751161937"><ele>1796.0</ele><time>2026-03-29T06:52:55.001Z</time></trkpt><trkpt lat="21.819270865749242" lon="100.51094832162067"><ele>1796.0</ele><time>2026-03-29T06:52:57.001Z</time></trkpt><trkpt lat="21.81933849303802" lon="100.51088205328925"><ele>1796.0</ele><time>2026-03-29T06:52:59.001Z</time></trkpt><trkpt lat="21.819394305427583" lon="100.51079602651897"><ele>1793.75</ele><time>2026-03-29T06:53:01.001Z</time></trkpt><trkpt lat="21.81946041029189" lon="100.51071636914368"><ele>1791.5</ele><time>2026-03-29T06:53:03.001Z</time></trkpt><trkpt lat="21.81953963995547" lon="100.51069709966893"><ele>1789.25</ele><time>2026-03-29T06:53:06.001Z</time></trkpt><trkpt lat="21.819747970227027" lon="100.510649484207"><ele>1787.0</ele><time>2026-03-29T06:53:09.001Z</time></trkpt><trkpt lat="21.819840342435434" lon="100.51066903407252"><ele>1786.9999999999998</ele><time>2026-03-29T06:53:11.001Z</time></trkpt><trkpt lat="21.819923255097123" lon="100.51065577643423"><ele>1787.0</ele><time>2026-03-29T06:53:13.001Z</time></trkpt><trkpt lat="21.82000688817142" lon="100.51062750975859"><ele>1787.0</ele><time>2026-03-29T06:53:15.001Z</time></trkpt><trkpt lat="21.820080620793025" lon="100.51059706446723"><ele>1787.0</ele><time>2026-03-29T06:53:17.001Z</time></trkpt><trkpt lat="21.82014380461848" lon="100.51058696416294"><ele>1786.9999999999998</ele><time>2026-03-29T06:53:19.001Z</time></trkpt><trkpt lat="21.820214729307832" lon="100.51056755556482"><ele>1787.0</ele><time>2026-03-29T06:53:21.001Z</time></trkpt><trkpt lat="21.820276776922757" lon="100.51050739752178"><ele>1784.8333333333333</ele><time>2026-03-29T06:53:23.001Z</time></trkpt><trkpt lat="21.82033183398563" lon="100.51045444624232"><ele>1782.6666666666665</ele><time>2026-03-29T06:53:25.001Z</time></trkpt><trkpt lat="21.820386987106623" lon="100.5104135656606"><ele>1780.5</ele><time>2026-03-29T06:53:27.001Z</time></trkpt><trkpt lat="21.820441502112832" lon="100.510361401035"><ele>1778.3333333333335</ele><time>2026-03-29T06:53:29.001Z</time></trkpt><trkpt lat="21.820491467826887" lon="100.51031919936666"><ele>1776.1666666666667</ele><time>2026-03-29T06:53:34.001Z</time></trkpt><trkpt lat="21.82054265706531" lon="100.51026878139865"><ele>1774.0</ele><time>2026-03-29T06:53:38.001Z</time></trkpt><trkpt lat="21.820592950720613" lon="100.50906850786384"><ele>1768.0</ele><time>2026-03-29T06:54:42.001Z</time></trkpt><trkpt lat="21.820575940007615" lon="100.50899299906325"><ele>1762.0</ele><time>2026-03-29T06:54:46.001Z</time></trkpt><trkpt lat="21.8205350325129" lon="100.50893058047642"><ele>1756.0</ele><time>2026-03-29T06:54:50.001Z</time></trkpt><trkpt lat="21.821173734046905" lon="100.508733881689"><ele>1751.0000000000002</ele><time>2026-03-29T06:56:42Z</time></trkpt><trkpt lat="21.821093253174492" lon="100.50864569024243"><ele>1746.0</ele><time>2026-03-29T06:56:45Z</time></trkpt><trkpt lat="21.82103851925506" lon="100.50857555865484"><ele>1741.0</ele><time>2026-03-29T06:56:47Z</time></trkpt><trkpt lat="21.820984503890223" lon="100.50853226552329"><ele>1736.0</ele><time>2026-03-29T06:56:48Z</time></trkpt><trkpt lat="21.820928007811833" lon="100.50848372080692"><ele>1731.0000000000002</ele><time>2026-03-29T06:56:49Z</time></trkpt><trkpt lat="21.82088011719714" lon="100.50843555361841"><ele>1726.0</ele><time>2026-03-29T06:56:50.001Z</time></trkpt><trkpt lat="21.820834943407977" lon="100.50838501835223"><ele>1726.0000000000002</ele><time>2026-03-29T06:56:51.001Z</time></trkpt><trkpt lat="21.820794576537644" lon="100.50829436901965"><ele>1726.0</ele><time>2026-03-29T06:56:52.001Z</time></trkpt><trkpt lat="21.820727248330932" lon="100.50822902923613"><ele>1726.0</ele><time>2026-03-29T06:56:53.001Z</time></trkpt><trkpt lat="21.820700798817924" lon="100.50815804015883"><ele>1726.0</ele><time>2026-03-29T06:56:54.001Z</time></trkpt><trkpt lat="21.82070392096576" lon="100.50808641709557"><ele>1726.0000000000002</ele><time>2026-03-29T06:56:55.001Z</time></trkpt><trkpt lat="21.82068168011985" lon="100.50796507232555"><ele>1726.0</ele><time>2026-03-29T06:56:57.001Z</time></trkpt><trkpt lat="21.820682626913626" lon="100.50784616190155"><ele>1723.6666666666667</ele><time>2026-03-29T06:56:59.001Z</time></trkpt><trkpt lat="21.820680190653757" lon="100.507751000319"><ele>1721.3333333333335</ele><time>2026-03-29T06:57:01.001Z</time></trkpt><trkpt lat="21.82068399112352" lon="100.507656145776"><ele>1719.0</ele><time>2026-03-29T06:57:04.001Z</time></trkpt><trkpt lat="21.820673317712007" lon="100.50758899630021"><ele>1716.6666666666665</ele><time>2026-03-29T06:57:06.001Z</time></trkpt><trkpt lat="21.82070234702803" lon="100.50750146787239"><ele>1714.3333333333333</ele><time>2026-03-29T06:57:10.001Z</time></trkpt><trkpt lat="21.820716636858048" lon="100.5074102738927"><ele>1712.0</ele><time>2026-03-29T06:57:13.001Z</time></trkpt><trkpt lat="21.82070863744582" lon="100.50731354190204"><ele>1712.0</ele><time>2026-03-29T06:57:16.001Z</time></trkpt><trkpt lat="21.820673035779066" lon="100.50721987156031"><ele>1711.9999999999998</ele><time>2026-03-29T06:57:18.001Z</time></trkpt><trkpt lat="21.820665667042693" lon="100.50706950001305"><ele>1711.9999999999998</ele><time>2026-03-29T06:57:20.001Z</time></trkpt><trkpt lat="21.82060095010865" lon="100.50696333987295"><ele>1712.0</ele><time>2026-03-29T06:57:21.001Z</time></trkpt><trkpt lat="21.820544090666434" lon="100.50690954273324"><ele>1712.0</ele><time>2026-03-29T06:57:22.001Z</time></trkpt><trkpt lat="21.820470807947355" lon="100.50685966719675"><ele>1708.0</ele><time>2026-03-29T06:57:23.001Z</time></trkpt><trkpt lat="21.82040581236558" lon="100.50682299232082"><ele>1704.0</ele><time>2026-03-29T06:57:24.001Z</time></trkpt><trkpt lat="21.82032491966145" lon="100.50677025496469"><ele>1700.0</ele><time>2026-03-29T06:57:25.001Z</time></trkpt><trkpt lat="21.820247111190767" lon="100.50675576410431"><ele>1696.0</ele><time>2026-03-29T06:57:26.001Z</time></trkpt><trkpt lat="21.818358325208727" lon="100.50738222220112"><ele>1695.6666666666667</ele><time>2026-03-29T06:58:42.001Z</time></trkpt><trkpt lat="21.818290487765932" lon="100.50740980305446"><ele>1695.3333333333335</ele><time>2026-03-29T06:58:43.001Z</time></trkpt><trkpt lat="21.81823428326077" lon="100.50745056184401"><ele>1695.0</ele><time>2026-03-29T06:58:44.001Z</time></trkpt><trkpt lat="21.81815159329899" lon="100.50750306657162"><ele>1694.6666666666665</ele><time>2026-03-29T06:58:46.001Z</time></trkpt><trkpt lat="21.81807449233264" lon="100.50750987317612"><ele>1694.3333333333333</ele><time>2026-03-29T06:58:48.001Z</time></trkpt><trkpt lat="21.81801719820002" lon="100.50743418140719"><ele>1694.0</ele><time>2026-03-29T06:58:50.001Z</time></trkpt><trkpt lat="21.817986084292315" lon="100.50730935717401"><ele>1693.9999999999998</ele><time>2026-03-29T06:58:52.001Z</time></trkpt><trkpt lat="21.817972991859307" lon="100.50724179270657"><ele>1694.0</ele><time>2026-03-29T06:58:53.001Z</time></trkpt><trkpt lat="21.81790662591469" lon="100.50715856223344"><ele>1694.0</ele><time>2026-03-29T06:58:55.001Z</time></trkpt><trkpt lat="21.817820802914106" lon="100.50707910697469"><ele>1694.0</ele><time>2026-03-29T06:58:57.001Z</time></trkpt><trkpt lat="21.817782321493436" lon="100.5069958901707"><ele>1693.9999999999998</ele><time>2026-03-29T06:58:59.001Z</time></trkpt><trkpt lat="21.817737320112766" lon="100.50692349226406"><ele>1694.0</ele><time>2026-03-29T06:59:01.001Z</time></trkpt><trkpt lat="21.817670607649625" lon="100.5068805341905"><ele>1691.8000000000002</ele><time>2026-03-29T06:59:03.001Z</time></trkpt><trkpt lat="21.817596875854857" lon="100.50681192352293"><ele>1689.6000000000001</ele><time>2026-03-29T06:59:05.001Z</time></trkpt><trkpt lat="21.81753176299822" lon="100.50674830877166"><ele>1687.4</ele><time>2026-03-29T06:59:06.001Z</time></trkpt><trkpt lat="21.81748784248473" lon="100.50668963946283"><ele>1685.2</ele><time>2026-03-29T06:59:07.001Z</time></trkpt><trkpt lat="21.817396779888167" lon="100.5066249920913"><ele>1683.0</ele><time>2026-03-29T06:59:09.001Z</time></trkpt><trkpt lat="21.817311792350264" lon="100.50663721232033"><ele>1683.0</ele><time>2026-03-29T06:59:12.001Z</time></trkpt><trkpt lat="21.817392083677" lon="100.50665716472389"><ele>1683.0</ele><time>2026-03-29T06:59:15.001Z</time></trkpt><trkpt lat="21.817460153796905" lon="100.50666551011784"><ele>1683.0</ele><time>2026-03-29T06:59:17.001Z</time></trkpt><trkpt lat="21.81752001414937" lon="100.50671312563021"><ele>1683.0</ele><time>2026-03-29T06:59:19.001Z</time></trkpt><trkpt lat="21.81756393696507" lon="100.50678134163068"><ele>1683.0</ele><time>2026-03-29T06:59:22.001Z</time></trkpt><trkpt lat="21.81768019528516" lon="100.50683868561633"><ele>1683.0</ele><time>2026-03-29T06:59:23.001Z</time></trkpt><trkpt lat="21.817642620175548" lon="100.50678135086362"><ele>1680.2</ele><time>2026-03-29T06:59:26.001Z</time></trkpt><trkpt lat="21.817737419258332" lon="100.50682648606724"><ele>1677.4</ele><time>2026-03-29T06:59:33.001Z</time></trkpt><trkpt lat="21.817838601296035" lon="100.50685951974893"><ele>1674.6000000000001</ele><time>2026-03-29T06:59:35.001Z</time></trkpt><trkpt lat="21.817932963767987" lon="100.50689581700227"><ele>1671.8000000000002</ele><time>2026-03-29T06:59:37.001Z</time></trkpt><trkpt lat="21.81799334958813" lon="100.50696459059414"><ele>1669.0</ele><time>2026-03-29T06:59:39.001Z</time></trkpt><trkpt lat="21.818004385832857" lon="100.50705990109716"><ele>1647.0</ele><time>2026-03-29T06:59:41.001Z</time></trkpt><trkpt lat="21.818081775768135" lon="100.50596566132695"><ele>1647.0</ele><time>2026-03-29T07:00:42Z</time></trkpt><trkpt lat="21.818142505210773" lon="100.50594473584309"><ele>1647.0</ele><time>2026-03-29T07:00:46Z</time></trkpt><trkpt lat="21.81819076222085" lon="100.50589956061005"><ele>1647.0</ele><time>2026-03-29T07:01:02Z</time></trkpt><trkpt lat="21.8182305661718" lon="100.50584625229571"><ele>1647.0</ele><time>2026-03-29T07:01:22.001Z</time></trkpt><trkpt lat="21.81830330645849" lon="100.50583305085294"><ele>1647.0</ele><time>2026-03-29T07:01:38.001Z</time></trkpt><trkpt lat="21.81854666108048" lon="100.50554148102029"><ele>1646.142857142857</ele><time>2026-03-29T07:02:42Z</time></trkpt><trkpt lat="21.818573287594894" lon="100.50545244708488"><ele>1645.2857142857142</ele><time>2026-03-29T07:02:50Z</time></trkpt><trkpt lat="21.818608235219124" lon="100.50536295404768"><ele>1644.4285714285713</ele><time>2026-03-29T07:02:53Z</time></trkpt><trkpt lat="21.818630547092255" lon="100.50529661079682"><ele>1643.5714285714284</ele><time>2026-03-29T07:02:59Z</time></trkpt><trkpt lat="21.81865394868843" lon="100.50523239422164"><ele>1642.7142857142858</ele><time>2026-03-29T07:03:02Z</time></trkpt><trkpt lat="21.818677498315612" lon="100.5051645942156"><ele>1641.8571428571427</ele><time>2026-03-29T07:03:05Z</time></trkpt><trkpt lat="21.818720106375864" lon="100.50509988773003"><ele>1641.0</ele><time>2026-03-29T07:03:09Z</time></trkpt><trkpt lat="21.81877056143971" lon="100.50504152349265"><ele>1641.0</ele><time>2026-03-29T07:03:13Z</time></trkpt><trkpt lat="21.81879506328788" lon="100.50496333012006"><ele>1641.0</ele><time>2026-03-29T07:03:16Z</time></trkpt><trkpt lat="21.81885909293777" lon="100.50489375981071"><ele>1641.0</ele><time>2026-03-29T07:03:19Z</time></trkpt><trkpt lat="21.81892490011021" lon="100.50485454385642"><ele>1641.0</ele><time>2026-03-29T07:03:23Z</time></trkpt><trkpt lat="21.81899134662558" lon="100.50483703667163"><ele>1641.0</ele><time>2026-03-29T07:03:29Z</time></trkpt><trkpt lat="21.81907559374191" lon="100.50479647658125"><ele>1641.0</ele><time>2026-03-29T07:03:31Z</time></trkpt><trkpt lat="21.819138935425578" lon="100.5047745386846"><ele>1641.0</ele><time>2026-03-29T07:03:32Z</time></trkpt><trkpt lat="21.81921294613478" lon="100.50474855805982"><ele>1641.0</ele><time>2026-03-29T07:03:33Z</time></trkpt><trkpt lat="21.819285170558228" lon="100.5047106774055"><ele>1641.0</ele><time>2026-03-29T07:03:34Z</time></trkpt><trkpt lat="21.819402147971914" lon="100.50466211683387"><ele>1641.0</ele><time>2026-03-29T07:03:36Z</time></trkpt><trkpt lat="21.819479158097078" lon="100.50464895042983"><ele>1641.0</ele><time>2026-03-29T07:03:37Z</time></trkpt><trkpt lat="21.819557162952744" lon="100.50464937004386"><ele>1641.0</ele><time>2026-03-29T07:03:38Z</time></trkpt><trkpt lat="21.81963240645221" lon="100.50467079395456"><ele>1640.0</ele><time>2026-03-29T07:03:39Z</time></trkpt><trkpt lat="21.819699965563906" lon="100.50469619495394"><ele>1639.0</ele><time>2026-03-29T07:03:40Z</time></trkpt><trkpt lat="21.819765535793312" lon="100.50473490977112"><ele>1638.0</ele><time>2026-03-29T07:03:41Z</time></trkpt><trkpt lat="21.821937877519993" lon="100.50455373137989"><ele>1629.2</ele><time>2026-03-29T07:04:42Z</time></trkpt><trkpt lat="21.82200624318351" lon="100.50449973429654"><ele>1620.4</ele><time>2026-03-29T07:04:44Z</time></trkpt><trkpt lat="21.82211361838285" lon="100.50446807601122"><ele>1611.6000000000001</ele><time>2026-03-29T07:04:46Z</time></trkpt><trkpt lat="21.82219758038569" lon="100.50444337087589"><ele>1602.8000000000002</ele><time>2026-03-29T07:04:47Z</time></trkpt><trkpt lat="21.822294153671677" lon="100.50440122681036"><ele>1594.0</ele><time>2026-03-29T07:04:48Z</time></trkpt><trkpt lat="21.822374219305395" lon="100.50436438306784"><ele>1594.0</ele><time>2026-03-29T07:04:49Z</time></trkpt><trkpt lat="21.822435449629147" lon="100.50432360226712"><ele>1594.0</ele><time>2026-03-29T07:04:50Z</time></trkpt><trkpt lat="21.822491879602854" lon="100.50428776475633"><ele>1594.0</ele><time>2026-03-29T07:04:51Z</time></trkpt><trkpt lat="21.82259580983809" lon="100.5042411293919"><ele>1594.0</ele><time>2026-03-29T07:04:53Z</time></trkpt><trkpt lat="21.822698062069048" lon="100.50425624994799"><ele>1594.0</ele><time>2026-03-29T07:04:55Z</time></trkpt><trkpt lat="21.822798734697386" lon="100.50434542697346"><ele>1590.6666666666667</ele><time>2026-03-29T07:04:57Z</time></trkpt><trkpt lat="21.82285956120763" lon="100.50439460978127"><ele>1587.3333333333335</ele><time>2026-03-29T07:04:58Z</time></trkpt><trkpt lat="21.822918145044206" lon="100.50443755075251"><ele>1584.0</ele><time>2026-03-29T07:04:59Z</time></trkpt><trkpt lat="21.82299731465078" lon="100.50446978743791"><ele>1580.6666666666665</ele><time>2026-03-29T07:05:00Z</time></trkpt><trkpt lat="21.823068165243193" lon="100.50450238416701"><ele>1577.3333333333333</ele><time>2026-03-29T07:05:01Z</time></trkpt><trkpt lat="21.823177535853645" lon="100.50454652967646"><ele>1574.0</ele><time>2026-03-29T07:05:03Z</time></trkpt><trkpt lat="21.823258110084204" lon="100.50456901623349"><ele>1576.0</ele><time>2026-03-29T07:05:05Z</time></trkpt><trkpt lat="21.823297449225244" lon="100.50463626300949"><ele>1578.0</ele><time>2026-03-29T07:05:09Z</time></trkpt><trkpt lat="21.8232179051734" lon="100.50473506987538"><ele>1580.0</ele><time>2026-03-29T07:05:12Z</time></trkpt><trkpt lat="21.823234553727985" lon="100.50481775784742"><ele>1582.0</ele><time>2026-03-29T07:05:13Z</time></trkpt><trkpt lat="21.82319777846945" lon="100.50490816153588"><ele>1584.0</ele><time>2026-03-29T07:05:14Z</time></trkpt><trkpt lat="21.82317672421771" lon="100.50499753876836"><ele>1584.0</ele><time>2026-03-29T07:05:15Z</time></trkpt><trkpt lat="21.823155159859088" lon="100.50509945817159"><ele>1584.0</ele><time>2026-03-29T07:05:16Z</time></trkpt><trkpt lat="21.82313741126261" lon="100.5052032984693"><ele>1584.0</ele><time>2026-03-29T07:05:17Z</time></trkpt><trkpt lat="21.823137116641718" lon="100.50530021248927"><ele>1584.0</ele><time>2026-03-29T07:05:18Z</time></trkpt><trkpt lat="21.823160310394417" lon="100.50539118571282"><ele>1584.0</ele><time>2026-03-29T07:05:19Z</time></trkpt><trkpt lat="21.823237548967665" lon="100.50548206664985"><ele>1586.6666666666667</ele><time>2026-03-29T07:05:20Z</time></trkpt><trkpt lat="21.82326934612428" lon="100.50560893360714"><ele>1589.3333333333335</ele><time>2026-03-29T07:05:22Z</time></trkpt><trkpt lat="21.823361367910202" lon="100.50565672395184"><ele>1592.0</ele><time>2026-03-29T07:05:23Z</time></trkpt><trkpt lat="21.823416066888328" lon="100.50571457346048"><ele>1594.6666666666667</ele><time>2026-03-29T07:05:24Z</time></trkpt><trkpt lat="21.82345853725703" lon="100.5057654974277"><ele>1597.3333333333335</ele><time>2026-03-29T07:05:25Z</time></trkpt><trkpt lat="21.823497646307246" lon="100.50582751645665"><ele>1600.0</ele><time>2026-03-29T07:05:26Z</time></trkpt><trkpt lat="21.82356184517476" lon="100.50583356183171"><ele>1600.0</ele><time>2026-03-29T07:05:27Z</time></trkpt><trkpt lat="21.823657851907733" lon="100.50572656238562"><ele>1600.0</ele><time>2026-03-29T07:05:30Z</time></trkpt><trkpt lat="21.82370465491858" lon="100.50566546068653"><ele>1600.0</ele><time>2026-03-29T07:05:31Z</time></trkpt><trkpt lat="21.823682191767666" lon="100.50552542638543"><ele>1600.0</ele><time>2026-03-29T07:05:32Z</time></trkpt><trkpt lat="21.823768847646004" lon="100.50546079542211"><ele>1600.0</ele><time>2026-03-29T07:05:34Z</time></trkpt><trkpt lat="21.823892886803435" lon="100.50550286153971"><ele>1600.0</ele><time>2026-03-29T07:05:36Z</time></trkpt><trkpt lat="21.823954983711264" lon="100.5055412294231"><ele>1600.0</ele><time>2026-03-29T07:05:37Z</time></trkpt><trkpt lat="21.82404156288951" lon="100.5055762076444"><ele>1600.0</ele><time>2026-03-29T07:05:38Z</time></trkpt><trkpt lat="21.824126874714935" lon="100.50561794586827"><ele>1600.0</ele><time>2026-03-29T07:05:39Z</time></trkpt><trkpt lat="21.824195491145506" lon="100.50567125123771"><ele>1600.0</ele><time>2026-03-29T07:05:40Z</time></trkpt><trkpt lat="21.8245809646353" lon="100.50560890976396"><ele>1600.0</ele><time>2026-03-29T07:06:46Z</time></trkpt><trkpt lat="21.82467501545237" lon="100.50558204585626"><ele>1600.0</ele><time>2026-03-29T07:06:55Z</time></trkpt><trkpt lat="21.82478574107562" lon="100.50554640334339"><ele>1600.0</ele><time>2026-03-29T07:06:57Z</time></trkpt><trkpt lat="21.824877298299498" lon="100.50552279930477"><ele>1600.0</ele><time>2026-03-29T07:06:59Z</time></trkpt><trkpt lat="21.82499085508247" lon="100.50548172581514"><ele>1600.0</ele><time>2026-03-29T07:07:01Z</time></trkpt><trkpt lat="21.82508138090692" lon="100.50548103744545"><ele>1600.0000000000002</ele><time>2026-03-29T07:07:03Z</time></trkpt><trkpt lat="21.82512057952938" lon="100.50541521763795"><ele>1600.0</ele><time>2026-03-29T07:07:06Z</time></trkpt><trkpt lat="21.825166394148308" lon="100.5053636061524"><ele>1600.0</ele><time>2026-03-29T07:07:08Z</time></trkpt><trkpt lat="21.825247472638328" lon="100.50531565661868"><ele>1600.0</ele><time>2026-03-29T07:07:11Z</time></trkpt><trkpt lat="21.825294122946513" lon="100.50526236579049"><ele>1600.0000000000002</ele><time>2026-03-29T07:07:13Z</time></trkpt><trkpt lat="21.82530995239524" lon="100.50515978495368"><ele>1600.0</ele><time>2026-03-29T07:07:16Z</time></trkpt><trkpt lat="21.82529084014276" lon="100.50509254136122"><ele>1594.0000000000002</ele><time>2026-03-29T07:07:18Z</time></trkpt><trkpt lat="21.8253008377715" lon="100.50501063165092"><ele>1588.0</ele><time>2026-03-29T07:07:20Z</time></trkpt><trkpt lat="21.82537550034385" lon="100.50493660173764"><ele>1582.0</ele><time>2026-03-29T07:07:22Z</time></trkpt><trkpt lat="21.825398743445426" lon="100.50484718470395"><ele>1576.0</ele><time>2026-03-29T07:07:24Z</time></trkpt><trkpt lat="21.82543675493657" lon="100.50476300369833"><ele>1570.0000000000002</ele><time>2026-03-29T07:07:26Z</time></trkpt><trkpt lat="21.8254734635569" lon="100.50466611616514"><ele>1564.0</ele><time>2026-03-29T07:07:27Z</time></trkpt><trkpt lat="21.82549919262875" lon="100.50458972987954"><ele>1562.3333333333335</ele><time>2026-03-29T07:07:28Z</time></trkpt><trkpt lat="21.825492092289736" lon="100.50450279359949"><ele>1560.6666666666665</ele><time>2026-03-29T07:07:31Z</time></trkpt><trkpt lat="21.82547812342661" lon="100.50439927998893"><ele>1559.0</ele><time>2026-03-29T07:07:41Z</time></trkpt><trkpt lat="21.8257079408904" lon="100.50272188548313"><ele>1550.0</ele><time>2026-03-29T07:08:42.001Z</time></trkpt><trkpt lat="21.825897135020995" lon="100.50255257148218"><ele>1541.0</ele><time>2026-03-29T07:08:43.001Z</time></trkpt><trkpt lat="21.82597151577812" lon="100.50247769713121"><ele>1532.0</ele><time>2026-03-29T07:08:45.001Z</time></trkpt><trkpt lat="21.826029759255576" lon="100.50244775931564"><ele>1523.0</ele><time>2026-03-29T07:08:46.001Z</time></trkpt><trkpt lat="21.82613440633902" lon="100.5024242866972"><ele>1520.1666666666667</ele><time>2026-03-29T07:08:48.001Z</time></trkpt><trkpt lat="21.826203334640365" lon="100.50242728711437"><ele>1517.3333333333335</ele><time>2026-03-29T07:08:51Z</time></trkpt><trkpt lat="21.826272284289125" lon="100.50246014629028"><ele>1514.5</ele><time>2026-03-29T07:08:55Z</time></trkpt><trkpt lat="21.826353052411864" lon="100.50250192390138"><ele>1511.6666666666667</ele><time>2026-03-29T07:08:58Z</time></trkpt><trkpt lat="21.826431880578724" lon="100.50250192438125"><ele>1508.8333333333333</ele><time>2026-03-29T07:09:00Z</time></trkpt><trkpt lat="21.826480870004872" lon="100.50244581160779"><ele>1506.0</ele><time>2026-03-29T07:09:03Z</time></trkpt><trkpt lat="21.826540413668695" lon="100.50237162314676"><ele>1506.0</ele><time>2026-03-29T07:09:07Z</time></trkpt><trkpt lat="21.826613546489323" lon="100.50235584473002"><ele>1506.0</ele><time>2026-03-29T07:09:10Z</time></trkpt><trkpt lat="21.826582338125277" lon="100.50243654198174"><ele>1506.0</ele><time>2026-03-29T07:09:14Z</time></trkpt><trkpt lat="21.826495732858582" lon="100.50255149670664"><ele>1506.0</ele><time>2026-03-29T07:09:16Z</time></trkpt><trkpt lat="21.82645199811569" lon="100.50262731959293"><ele>1506.0</ele><time>2026-03-29T07:09:17Z</time></trkpt><trkpt lat="21.82639518853573" lon="100.50270444404337"><ele>1506.0</ele><time>2026-03-29T07:09:18Z</time></trkpt><trkpt lat="21.826344698712063" lon="100.50280063102802"><ele>1506.0</ele><time>2026-03-29T07:09:19Z</time></trkpt><trkpt lat="21.826300519154373" lon="100.50288045576431"><ele>1506.0</ele><time>2026-03-29T07:09:20Z</time></trkpt><trkpt lat="21.82627565380492" lon="100.50294696182378"><ele>1506.0</ele><time>2026-03-29T07:09:21Z</time></trkpt><trkpt lat="21.826198849976528" lon="100.5030532090156"><ele>1506.0</ele><time>2026-03-29T07:09:23Z</time></trkpt><trkpt lat="21.826155320611104" lon="100.50310300793235"><ele>1506.0</ele><time>2026-03-29T07:09:24Z</time></trkpt><trkpt lat="21.826173145632566" lon="100.50318990449323"><ele>1507.0</ele><time>2026-03-29T07:09:26Z</time></trkpt><trkpt lat="21.82627275850275" lon="100.50330374779301"><ele>1508.0</ele><time>2026-03-29T07:09:28Z</time></trkpt><trkpt lat="21.826355729528323" lon="100.5033434239629"><ele>1509.0</ele><time>2026-03-29T07:09:29Z</time></trkpt><trkpt lat="21.82643498206976" lon="100.50334410979609"><ele>1510.0</ele><time>2026-03-29T07:09:30Z</time></trkpt><trkpt lat="21.826523316519225" lon="100.50332823014443"><ele>1511.0</ele><time>2026-03-29T07:09:31Z</time></trkpt><trkpt lat="21.826602865347887" lon="100.50334336931165"><ele>1511.0</ele><time>2026-03-29T07:09:32.001Z</time></trkpt><trkpt lat="21.826677278706057" lon="100.50336807321348"><ele>1511.0</ele><time>2026-03-29T07:09:33.001Z</time></trkpt><trkpt lat="21.826755657926707" lon="100.50338275835206"><ele>1511.0</ele><time>2026-03-29T07:09:34.001Z</time></trkpt><trkpt lat="21.826883243383858" lon="100.50340056941441"><ele>1511.0</ele><time>2026-03-29T07:09:36.001Z</time></trkpt><trkpt lat="21.827014630565074" lon="100.5033426181114"><ele>1511.0</ele><time>2026-03-29T07:09:38.001Z</time></trkpt><trkpt lat="21.82707060467741" lon="100.50330741995894"><ele>1502.5</ele><time>2026-03-29T07:09:39.001Z</time></trkpt><trkpt lat="21.827133782999276" lon="100.50327448159344"><ele>1494.0</ele><time>2026-03-29T07:09:40.001Z</time></trkpt><trkpt lat="21.82781160992127" lon="100.50313549036449"><ele>1490.0</ele><time>2026-03-29T07:10:42.001Z</time></trkpt><trkpt lat="21.82790241915279" lon="100.50311172784531"><ele>1486.0</ele><time>2026-03-29T07:10:45.001Z</time></trkpt><trkpt lat="21.827994949770343" lon="100.50308308470862"><ele>1482.0</ele><time>2026-03-29T07:10:48.001Z</time></trkpt><trkpt lat="21.82807805790329" lon="100.50305124814297"><ele>1478.0</ele><time>2026-03-29T07:10:52.001Z</time></trkpt><trkpt lat="21.82816104034132" lon="100.50305164428474"><ele>1474.0</ele><time>2026-03-29T07:10:53.001Z</time></trkpt><trkpt lat="21.828415263464514" lon="100.5030705873859"><ele>1471.3333333333333</ele><time>2026-03-29T07:11:02.001Z</time></trkpt><trkpt lat="21.82847806133356" lon="100.50308357454044"><ele>1468.6666666666665</ele><time>2026-03-29T07:11:04.001Z</time></trkpt><trkpt lat="21.828577894532035" lon="100.50307247927893"><ele>1466.0</ele><time>2026-03-29T07:11:06.001Z</time></trkpt><trkpt lat="21.828618184944755" lon="100.50301092686735"><ele>1463.3333333333333</ele><time>2026-03-29T07:11:07.001Z</time></trkpt><trkpt lat="21.828696711837967" lon="100.50302084796094"><ele>1460.6666666666667</ele><time>2026-03-29T07:11:10.001Z</time></trkpt><trkpt lat="21.82878162510346" lon="100.5030033392447"><ele>1458.0</ele><time>2026-03-29T07:11:12.001Z</time></trkpt><trkpt lat="21.828845694100853" lon="100.50300488580852"><ele>1458.0</ele><time>2026-03-29T07:11:14.001Z</time></trkpt><trkpt lat="21.828957846093274" lon="100.5030165309895"><ele>1458.0</ele><time>2026-03-29T07:11:18.001Z</time></trkpt><trkpt lat="21.829117022737126" lon="100.50302319805118"><ele>1458.0</ele><time>2026-03-29T07:11:20.001Z</time></trkpt><trkpt lat="21.829185206326102" lon="100.5030182941601"><ele>1458.0</ele><time>2026-03-29T07:11:21.001Z</time></trkpt><trkpt lat="21.82925328118442" lon="100.50303057075212"><ele>1458.0</ele><time>2026-03-29T07:11:22.001Z</time></trkpt><trkpt lat="21.829327983506268" lon="100.50305137736775"><ele>1457.8333333333333</ele><time>2026-03-29T07:11:23.001Z</time></trkpt><trkpt lat="21.829390829301552" lon="100.50306833208363"><ele>1457.6666666666667</ele><time>2026-03-29T07:11:24.001Z</time></trkpt><trkpt lat="21.829456122905402" lon="100.50310270869882"><ele>1457.5</ele><time>2026-03-29T07:11:25.001Z</time></trkpt><trkpt lat="21.82951929568166" lon="100.50313666098603"><ele>1457.3333333333335</ele><time>2026-03-29T07:11:26.001Z</time></trkpt><trkpt lat="21.829643623663063" lon="100.50317443356066"><ele>1457.1666666666667</ele><time>2026-03-29T07:11:28.001Z</time></trkpt><trkpt lat="21.82972420293253" lon="100.50317705661351"><ele>1457.0</ele><time>2026-03-29T07:11:29.001Z</time></trkpt><trkpt lat="21.8297955006673" lon="100.50318796857474"><ele>1457.0</ele><time>2026-03-29T07:11:30.001Z</time></trkpt><trkpt lat="21.829861364225888" lon="100.50320710438302"><ele>1457.0</ele><time>2026-03-29T07:11:31.001Z</time></trkpt><trkpt lat="21.829936620044684" lon="100.50322021375507"><ele>1457.0</ele><time>2026-03-29T07:11:32.001Z</time></trkpt><trkpt lat="21.830041449878234" lon="100.50321084381372"><ele>1457.0</ele><time>2026-03-29T07:11:34.001Z</time></trkpt><trkpt lat="21.830132042212107" lon="100.50316319044052"><ele>1457.0</ele><time>2026-03-29T07:11:36.001Z</time></trkpt><trkpt lat="21.830226268944994" lon="100.50316555608764"><ele>1457.0</ele><time>2026-03-29T07:11:37.001Z</time></trkpt><trkpt lat="21.83033064874705" lon="100.50312698368467"><ele>1451.0</ele><time>2026-03-29T07:11:39.001Z</time></trkpt><trkpt lat="21.830375125811273" lon="100.50304608063762"><ele>1445.0</ele><time>2026-03-29T07:11:41.001Z</time></trkpt><trkpt lat="21.833312207965268" lon="100.50296248414722"><ele>1436.0</ele><time>2026-03-29T07:12:42.001Z</time></trkpt><trkpt lat="21.833374991433512" lon="100.50294598244791"><ele>1427.0</ele><time>2026-03-29T07:12:44.001Z</time></trkpt><trkpt lat="21.833438837658573" lon="100.50293011325357"><ele>1418.0</ele><time>2026-03-29T07:12:46.001Z</time></trkpt><trkpt lat="21.833522953148126" lon="100.50292522008134"><ele>1409.0</ele><time>2026-03-29T07:12:48.001Z</time></trkpt><trkpt lat="21.83358691434905" lon="100.50293325715822"><ele>1400.0</ele><time>2026-03-29T07:12:50.001Z</time></trkpt><trkpt lat="21.833673610492973" lon="100.50293306814025"><ele>1391.0</ele><time>2026-03-29T07:12:52.001Z</time></trkpt><trkpt lat="21.833908518537047" lon="100.50295410477403"><ele>1387.0</ele><time>2026-03-29T07:12:54.001Z</time></trkpt><trkpt lat="21.83400249373877" lon="100.5029602758081"><ele>1383.0</ele><time>2026-03-29T07:12:56.001Z</time></trkpt><trkpt lat="21.834077777461786" lon="100.50295381823315"><ele>1379.0</ele><time>2026-03-29T07:12:58.001Z</time></trkpt><trkpt lat="21.834137864414366" lon="100.5029290933401"><ele>1375.0</ele><time>2026-03-29T07:13:00.001Z</time></trkpt><trkpt lat="21.834108543869014" lon="100.5028460247368"><ele>1371.0</ele><time>2026-03-29T07:13:03.001Z</time></trkpt><trkpt lat="21.834031707720143" lon="100.50276007116923"><ele>1367.0</ele><time>2026-03-29T07:13:05.001Z</time></trkpt><trkpt lat="21.83398747006671" lon="100.50268301183466"><ele>1367.0</ele><time>2026-03-29T07:13:07.001Z</time></trkpt><trkpt lat="21.834004525872707" lon="100.502598603569"><ele>1367.0</ele><time>2026-03-29T07:13:09.001Z</time></trkpt><trkpt lat="21.834059798036353" lon="100.50250791942476"><ele>1367.0</ele><time>2026-03-29T07:13:11.001Z</time></trkpt><trkpt lat="21.834048899545174" lon="100.5024194780878"><ele>1367.0</ele><time>2026-03-29T07:13:13Z</time></trkpt><trkpt lat="21.834010823394046" lon="100.50236161459367"><ele>1367.0</ele><time>2026-03-29T07:13:16Z</time></trkpt><trkpt lat="21.83395808969384" lon="100.50229732744178"><ele>1367.0</ele><time>2026-03-29T07:13:19Z</time></trkpt><trkpt lat="21.834034482656417" lon="100.50226061384747"><ele>1367.0</ele><time>2026-03-29T07:13:23Z</time></trkpt><trkpt lat="21.834123754779608" lon="100.50227503946593"><ele>1367.0</ele><time>2026-03-29T07:13:26Z</time></trkpt><trkpt lat="21.834213158504483" lon="100.50226105702163"><ele>1367.0</ele><time>2026-03-29T07:13:29Z</time></trkpt><trkpt lat="21.83430386412925" lon="100.50223284978365"><ele>1367.0</ele><time>2026-03-29T07:13:32Z</time></trkpt><trkpt lat="21.83437370269388" lon="100.50220232389913"><ele>1367.0</ele><time>2026-03-29T07:13:34Z</time></trkpt><trkpt lat="21.834573999879595" lon="100.50218500412178"><ele>1362.0</ele><time>2026-03-29T07:13:36Z</time></trkpt><trkpt lat="21.834679858962687" lon="100.50224426253159"><ele>1357.0</ele><time>2026-03-29T07:13:38Z</time></trkpt><trkpt lat="21.83474313195368" lon="100.50228967630652"><ele>1352.0</ele><time>2026-03-29T07:13:39Z</time></trkpt><trkpt lat="21.834811602067635" lon="100.50232880305472"><ele>1347.0</ele><time>2026-03-29T07:13:40Z</time></trkpt><trkpt lat="21.834879942463118" lon="100.50235834897046"><ele>1342.0</ele><time>2026-03-29T07:13:41Z</time></trkpt><trkpt lat="21.836071060344636" lon="100.50100359379874"><ele>1338.0</ele><time>2026-03-29T07:14:42.001Z</time></trkpt><trkpt lat="21.836127368759758" lon="100.50094531164652"><ele>1334.0</ele><time>2026-03-29T07:14:43.001Z</time></trkpt><trkpt lat="21.836177895680667" lon="100.50087590976007"><ele>1330.0</ele><time>2026-03-29T07:14:44.001Z</time></trkpt><trkpt lat="21.8362166930414" lon="100.50079566787936"><ele>1326.0</ele><time>2026-03-29T07:14:45.001Z</time></trkpt><trkpt lat="21.836231204751098" lon="100.50069730733969"><ele>1322.0</ele><time>2026-03-29T07:14:46.001Z</time></trkpt><trkpt lat="21.836238477598613" lon="100.5005927272467"><ele>1318.0</ele><time>2026-03-29T07:14:47.001Z</time></trkpt><trkpt lat="21.83624249435347" lon="100.50048285335012"><ele>1318.5</ele><time>2026-03-29T07:14:48.001Z</time></trkpt><trkpt lat="21.836243173908233" lon="100.50036560038593"><ele>1319.0</ele><time>2026-03-29T07:14:49.001Z</time></trkpt><trkpt lat="21.83624316092394" lon="100.50024573043106"><ele>1319.5</ele><time>2026-03-29T07:14:50.001Z</time></trkpt><trkpt lat="21.836257114711884" lon="100.5001272141185"><ele>1320.0</ele><time>2026-03-29T07:14:51.001Z</time></trkpt><trkpt lat="21.836279564309404" lon="100.50000128223745"><ele>1320.0</ele><time>2026-03-29T07:14:52.001Z</time></trkpt><trkpt lat="21.836298222985615" lon="100.49987541354098"><ele>1320.0</ele><time>2026-03-29T07:14:53.001Z</time></trkpt><trkpt lat="21.83630965918505" lon="100.49976601154911"><ele>1320.0</ele><time>2026-03-29T07:14:54.001Z</time></trkpt><trkpt lat="21.836318842968293" lon="100.49968996421471"><ele>1320.0</ele><time>2026-03-29T07:14:55.001Z</time></trkpt><trkpt lat="21.83633110067831" lon="100.4996206919941"><ele>1320.0</ele><time>2026-03-29T07:14:57.001Z</time></trkpt><trkpt lat="21.83624211421126" lon="100.49967843606285"><ele>1320.0</ele><time>2026-03-29T07:15:02.001Z</time></trkpt><trkpt lat="21.836230057090578" lon="100.49977700053628"><ele>1320.0</ele><time>2026-03-29T07:15:05Z</time></trkpt><trkpt lat="21.836171828464487" lon="100.49984144514315"><ele>1320.0</ele><time>2026-03-29T07:15:07Z</time></trkpt><trkpt lat="21.8361219172626" lon="100.49988579469195"><ele>1320.0</ele><time>2026-03-29T07:15:08Z</time></trkpt><trkpt lat="21.836018616055902" lon="100.49994122731698"><ele>1320.0</ele><time>2026-03-29T07:15:10Z</time></trkpt><trkpt lat="21.835947078179913" lon="100.49995964045175"><ele>1320.0</ele><time>2026-03-29T07:15:12Z</time></trkpt><trkpt lat="21.835844025748482" lon="100.49998943433972"><ele>1322.6666666666667</ele><time>2026-03-29T07:15:14Z</time></trkpt><trkpt lat="21.83574531727031" lon="100.5000083093963"><ele>1325.3333333333333</ele><time>2026-03-29T07:15:16Z</time></trkpt><trkpt lat="21.835664249916803" lon="100.5000351102462"><ele>1328.0</ele><time>2026-03-29T07:15:18Z</time></trkpt><trkpt lat="21.83557890416105" lon="100.50007379928671"><ele>1330.6666666666665</ele><time>2026-03-29T07:15:20Z</time></trkpt><trkpt lat="21.835506328159497" lon="100.50008221918613"><ele>1333.3333333333333</ele><time>2026-03-29T07:15:22Z</time></trkpt><trkpt lat="21.835430989563864" lon="100.50002933605086"><ele>1336.0</ele><time>2026-03-29T07:15:25Z</time></trkpt><trkpt lat="21.83536219451716" lon="100.49995588894771"><ele>1336.0</ele><time>2026-03-29T07:15:27Z</time></trkpt><trkpt lat="21.83527732999143" lon="100.4998936839348"><ele>1336.0</ele><time>2026-03-29T07:15:29Z</time></trkpt><trkpt lat="21.83521148508388" lon="100.49985558666636"><ele>1336.0</ele><time>2026-03-29T07:15:31Z</time></trkpt><trkpt lat="21.83515615620651" lon="100.49978754750828"><ele>1336.0</ele><time>2026-03-29T07:15:35Z</time></trkpt><trkpt lat="21.83523028965212" lon="100.49974219177929"><ele>1336.0</ele><time>2026-03-29T07:15:38Z</time></trkpt><trkpt lat="21.835298200391417" lon="100.49976331908309"><ele>1336.0</ele><time>2026-03-29T07:15:41Z</time></trkpt><trkpt lat="21.834790749574687" lon="100.49874230359201"><ele>1332.0</ele><time>2026-03-29T07:16:42Z</time></trkpt><trkpt lat="21.834808661848843" lon="100.49864468470079"><ele>1328.0</ele><time>2026-03-29T07:16:45Z</time></trkpt><trkpt lat="21.83481402186616" lon="100.49856041518643"><ele>1324.0</ele><time>2026-03-29T07:16:47.001Z</time></trkpt><trkpt lat="21.834872810486612" lon="100.49850450822122"><ele>1320.0</ele><time>2026-03-29T07:16:50.001Z</time></trkpt><trkpt lat="21.83491132249981" lon="100.49842326450734"><ele>1316.0</ele><time>2026-03-29T07:16:54.001Z</time></trkpt><trkpt lat="21.83493613875878" lon="100.49835218365166"><ele>1312.0</ele><time>2026-03-29T07:16:57.001Z</time></trkpt><trkpt lat="21.834969887197595" lon="100.49828091546308"><ele>1312.0</ele><time>2026-03-29T07:17:00.001Z</time></trkpt><trkpt lat="21.834977155964474" lon="100.49819893734265"><ele>1312.0</ele><time>2026-03-29T07:17:03Z</time></trkpt><trkpt lat="21.834987821014373" lon="100.49811937965539"><ele>1312.0</ele><time>2026-03-29T07:17:06Z</time></trkpt><trkpt lat="21.835016818732623" lon="100.49805057347905"><ele>1312.0</ele><time>2026-03-29T07:17:09Z</time></trkpt><trkpt lat="21.835088618776876" lon="100.49803268354843"><ele>1312.0</ele><time>2026-03-29T07:17:19Z</time></trkpt><trkpt lat="21.835028356130465" lon="100.49799958722505"><ele>1312.0</ele><time>2026-03-29T07:17:31Z</time></trkpt><trkpt lat="21.83471924142844" lon="100.49693977610451"><ele>1312.8333333333333</ele><time>2026-03-29T07:18:41.999Z</time></trkpt><trkpt lat="21.834665007191905" lon="100.49688451999586"><ele>1313.6666666666665</ele><time>2026-03-29T07:18:42.999Z</time></trkpt><trkpt lat="21.83463203707382" lon="100.49680604227389"><ele>1314.5</ele><time>2026-03-29T07:18:44.999Z</time></trkpt><trkpt lat="21.83459384649138" lon="100.4967409368003"><ele>1315.3333333333333</ele><time>2026-03-29T07:18:46.999Z</time></trkpt><trkpt lat="21.83454422745378" lon="100.4966707205307"><ele>1316.1666666666667</ele><time>2026-03-29T07:18:48.999Z</time></trkpt><trkpt lat="21.83450480055386" lon="100.49659025934977"><ele>1317.0</ele><time>2026-03-29T07:18:50.999Z</time></trkpt><trkpt lat="21.834443939303718" lon="100.49653166372795"><ele>1317.0</ele><time>2026-03-29T07:18:53Z</time></trkpt><trkpt lat="21.83438665040029" lon="100.49649834333233"><ele>1317.0</ele><time>2026-03-29T07:18:55Z</time></trkpt><trkpt lat="21.834348125184917" lon="100.4964191781315"><ele>1317.0</ele><time>2026-03-29T07:18:58Z</time></trkpt><trkpt lat="21.83440808135333" lon="100.49635902673023"><ele>1317.0</ele><time>2026-03-29T07:19:03Z</time></trkpt><trkpt lat="21.83447666939016" lon="100.49633169255047"><ele>1317.0</ele><time>2026-03-29T07:19:05Z</time></trkpt><trkpt lat="21.834508294114418" lon="100.49625932306894"><ele>1317.0</ele><time>2026-03-29T07:19:09Z</time></trkpt><trkpt lat="21.83451410682818" lon="100.49613294124306"><ele>1317.8</ele><time>2026-03-29T07:19:11Z</time></trkpt><trkpt lat="21.83457237152745" lon="100.49608659869406"><ele>1318.6</ele><time>2026-03-29T07:19:12Z</time></trkpt><trkpt lat="21.834586737377926" lon="100.49597942887605"><ele>1319.3999999999999</ele><time>2026-03-29T07:19:14Z</time></trkpt><trkpt lat="21.834626417573116" lon="100.49583526700609"><ele>1320.1999999999998</ele><time>2026-03-29T07:19:16Z</time></trkpt><trkpt lat="21.83464486973486" lon="100.49573648652083"><ele>1321.0</ele><time>2026-03-29T07:19:18Z</time></trkpt><trkpt lat="21.834608206580278" lon="100.49568094419185"><ele>1321.0</ele><time>2026-03-29T07:19:22Z</time></trkpt><trkpt lat="21.834612974901145" lon="100.49559524012194"><ele>1321.0</ele><time>2026-03-29T07:19:26Z</time></trkpt><trkpt lat="21.834589621134775" lon="100.495486655713"><ele>1321.0</ele><time>2026-03-29T07:19:28Z</time></trkpt><trkpt lat="21.83458922072288" lon="100.49540332815349"><ele>1321.0</ele><time>2026-03-29T07:19:30Z</time></trkpt><trkpt lat="21.834584904521627" lon="100.4953310131846"><ele>1321.0</ele><time>2026-03-29T07:19:33Z</time></trkpt><trkpt lat="21.83454956710532" lon="100.49527235943685"><ele>1321.0</ele><time>2026-03-29T07:19:35Z</time></trkpt><trkpt lat="21.83450970728566" lon="100.49516612774293"><ele>1321.6666666666665</ele><time>2026-03-29T07:19:37Z</time></trkpt><trkpt lat="21.834456767882838" lon="100.49505764028031"><ele>1322.3333333333333</ele><time>2026-03-29T07:19:39Z</time></trkpt><trkpt lat="21.834429427491933" lon="100.49498456434664"><ele>1323.0</ele><time>2026-03-29T07:19:41Z</time></trkpt><trkpt lat="21.834258462501577" lon="100.4946492386957"><ele>1320.5714285714287</ele><time>2026-03-29T07:20:41.999Z</time></trkpt><trkpt lat="21.834210934851672" lon="100.49460254569165"><ele>1318.142857142857</ele><time>2026-03-29T07:21:02Z</time></trkpt><trkpt lat="21.83418188216968" lon="100.49453432259887"><ele>1315.7142857142858</ele><time>2026-03-29T07:21:07Z</time></trkpt><trkpt lat="21.834154357896626" lon="100.49446850248975"><ele>1313.2857142857142</ele><time>2026-03-29T07:21:11Z</time></trkpt><trkpt lat="21.834088730209224" lon="100.49440116885384"><ele>1310.857142857143</ele><time>2026-03-29T07:21:16Z</time></trkpt><trkpt lat="21.834016022296016" lon="100.49443163784714"><ele>1308.4285714285716</ele><time>2026-03-29T07:21:20Z</time></trkpt><trkpt lat="21.833953440688344" lon="100.49444494085239"><ele>1306.0</ele><time>2026-03-29T07:21:23Z</time></trkpt><trkpt lat="21.83389907577788" lon="100.49435970071698"><ele>1306.0</ele><time>2026-03-29T07:21:27Z</time></trkpt><trkpt lat="21.833835457576395" lon="100.49435281148827"><ele>1306.0</ele><time>2026-03-29T07:21:30Z</time></trkpt><trkpt lat="21.833773587587945" lon="100.49431680433922"><ele>1306.0</ele><time>2026-03-29T07:21:32Z</time></trkpt><trkpt lat="21.83370257131708" lon="100.49426013681217"><ele>1306.0</ele><time>2026-03-29T07:21:34Z</time></trkpt><trkpt lat="21.833705609565495" lon="100.49415510591606"><ele>1306.0</ele><time>2026-03-29T07:21:37Z</time></trkpt><trkpt lat="21.833736933070167" lon="100.49406337210145"><ele>1306.0</ele><time>2026-03-29T07:21:40Z</time></trkpt><trkpt lat="21.83377131863829" lon="100.49351462770541"><ele>1306.7142857142858</ele><time>2026-03-29T07:22:41.999Z</time></trkpt><trkpt lat="21.833757634868086" lon="100.49358656481552"><ele>1307.4285714285716</ele><time>2026-03-29T07:22:45.999Z</time></trkpt><trkpt lat="21.83367385673314" lon="100.49358013500988"><ele>1308.1428571428573</ele><time>2026-03-29T07:22:55.999Z</time></trkpt><trkpt lat="21.83363785594353" lon="100.49352359633538"><ele>1308.857142857143</ele><time>2026-03-29T07:22:57.999Z</time></trkpt><trkpt lat="21.833612888502696" lon="100.49346046062131"><ele>1309.5714285714284</ele><time>2026-03-29T07:23:00.999Z</time></trkpt><trkpt lat="21.833593649517198" lon="100.49338583787049"><ele>1310.2857142857144</ele><time>2026-03-29T07:23:25Z</time></trkpt><trkpt lat="21.833586981020446" lon="100.49331243599839"><ele>1311.0</ele><time>2026-03-29T07:23:27Z</time></trkpt><trkpt lat="21.833564799534518" lon="100.49323680850807"><ele>1311.0</ele><time>2026-03-29T07:23:29Z</time></trkpt><trkpt lat="21.833553516009435" lon="100.49316077847428"><ele>1311.0</ele><time>2026-03-29T07:23:31Z</time></trkpt><trkpt lat="21.833531693527743" lon="100.49307159750119"><ele>1311.0</ele><time>2026-03-29T07:23:33Z</time></trkpt><trkpt lat="21.833453666290662" lon="100.49301122466008"><ele>1311.0</ele><time>2026-03-29T07:23:36Z</time></trkpt><trkpt lat="21.83338374620141" lon="100.49299608062924"><ele>1311.0</ele><time>2026-03-29T07:23:38Z</time></trkpt><trkpt lat="21.83333074533917" lon="100.49295464331415"><ele>1311.0</ele><time>2026-03-29T07:23:40Z</time></trkpt><trkpt lat="21.833409508691986" lon="100.4921578333291"><ele>1309.142857142857</ele><time>2026-03-29T07:24:41.999Z</time></trkpt><trkpt lat="21.83336651187483" lon="100.4921066762001"><ele>1307.2857142857142</ele><time>2026-03-29T07:24:50.999Z</time></trkpt><trkpt lat="21.83332674428106" lon="100.49216226205915"><ele>1305.4285714285713</ele><time>2026-03-29T07:24:55.999Z</time></trkpt><trkpt lat="21.833297767718786" lon="100.4922327574088"><ele>1303.5714285714284</ele><time>2026-03-29T07:24:57.999Z</time></trkpt><trkpt lat="21.833291217819834" lon="100.49232325176393"><ele>1301.7142857142858</ele><time>2026-03-29T07:25:00.999Z</time></trkpt><trkpt lat="21.833300028349626" lon="100.49239466963239"><ele>1299.8571428571427</ele><time>2026-03-29T07:25:11Z</time></trkpt><trkpt lat="21.833272640282875" lon="100.49246154111795"><ele>1298.0</ele><time>2026-03-29T07:25:17Z</time></trkpt><trkpt lat="21.832826883037846" lon="100.49158520596069"><ele>1298.0</ele><time>2026-03-29T07:26:41.999Z</time></trkpt><trkpt lat="21.83275727782583" lon="100.49157408656725"><ele>1298.0</ele><time>2026-03-29T07:26:44.999Z</time></trkpt><trkpt lat="21.832682575287667" lon="100.49155995253047"><ele>1298.0</ele><time>2026-03-29T07:26:47.999Z</time></trkpt><trkpt lat="21.832605374907246" lon="100.49154173619809"><ele>1298.0</ele><time>2026-03-29T07:26:50.999Z</time></trkpt><trkpt lat="21.832527778311924" lon="100.49150528141026"><ele>1298.0</ele><time>2026-03-29T07:26:53.999Z</time></trkpt><trkpt lat="21.832465579557557" lon="100.49145835241612"><ele>1298.0</ele><time>2026-03-29T07:26:56.999Z</time></trkpt><trkpt lat="21.83240811681518" lon="100.49137526872383"><ele>1297.0</ele><time>2026-03-29T07:26:58.999Z</time></trkpt><trkpt lat="21.83233219391457" lon="100.49131193860202"><ele>1296.0</ele><time>2026-03-29T07:26:59.999Z</time></trkpt><trkpt lat="21.832292143219583" lon="100.49118013422601"><ele>1295.0</ele><time>2026-03-29T07:27:01.999Z</time></trkpt><trkpt lat="21.832322043122197" lon="100.4911003699336"><ele>1294.0</ele><time>2026-03-29T07:27:03.999Z</time></trkpt><trkpt lat="21.832424243932742" lon="100.49107616608673"><ele>1293.0</ele><time>2026-03-29T07:27:05.999Z</time></trkpt><trkpt lat="21.832498550513694" lon="100.4910847823171"><ele>1292.5</ele><time>2026-03-29T07:27:06.999Z</time></trkpt><trkpt lat="21.832568882053508" lon="100.49109233357288"><ele>1292.0</ele><time>2026-03-29T07:27:07.999Z</time></trkpt><trkpt lat="21.832647902937815" lon="100.49107623658529"><ele>1291.5</ele><time>2026-03-29T07:27:09.999Z</time></trkpt><trkpt lat="21.832582002179215" lon="100.49099647103631"><ele>1291.0</ele><time>2026-03-29T07:27:12.999Z</time></trkpt><trkpt lat="21.832490348149307" lon="100.49096003458666"><ele>1290.5</ele><time>2026-03-29T07:27:13.999Z</time></trkpt><trkpt lat="21.83241705777045" lon="100.4909225859576"><ele>1290.0</ele><time>2026-03-29T07:27:14.999Z</time></trkpt><trkpt lat="21.83235304838317" lon="100.49087152587822"><ele>1290.0</ele><time>2026-03-29T07:27:16Z</time></trkpt><trkpt lat="21.83230199591175" lon="100.49081020533232"><ele>1290.0</ele><time>2026-03-29T07:27:17Z</time></trkpt><trkpt lat="21.832273626592446" lon="100.49074888598676"><ele>1290.0</ele><time>2026-03-29T07:27:18Z</time></trkpt><trkpt lat="21.832256960757302" lon="100.49067718795075"><ele>1290.0</ele><time>2026-03-29T07:27:19Z</time></trkpt><trkpt lat="21.83221587943654" lon="100.49057126794267"><ele>1290.0</ele><time>2026-03-29T07:27:20Z</time></trkpt><trkpt lat="21.832182576233595" lon="100.49050362465582"><ele>1290.0</ele><time>2026-03-29T07:27:21Z</time></trkpt><trkpt lat="21.832161956364942" lon="100.49042994849913"><ele>1291.0</ele><time>2026-03-29T07:27:22Z</time></trkpt><trkpt lat="21.832134390742073" lon="100.49035437592691"><ele>1292.0</ele><time>2026-03-29T07:27:23Z</time></trkpt><trkpt lat="21.832119812238147" lon="100.49028827627293"><ele>1293.0</ele><time>2026-03-29T07:27:24Z</time></trkpt><trkpt lat="21.832125017089556" lon="100.49018516607651"><ele>1294.0</ele><time>2026-03-29T07:27:26Z</time></trkpt><trkpt lat="21.832180948512516" lon="100.49011875937107"><ele>1295.0</ele><time>2026-03-29T07:27:28Z</time></trkpt><trkpt lat="21.83174549282917" lon="100.48954056436577"><ele>1293.142857142857</ele><time>2026-03-29T07:29:42Z</time></trkpt><trkpt lat="21.831689666318674" lon="100.48949377977428"><ele>1291.2857142857142</ele><time>2026-03-29T07:29:46Z</time></trkpt><trkpt lat="21.83167800544762" lon="100.4894184204862"><ele>1289.4285714285716</ele><time>2026-03-29T07:29:50Z</time></trkpt><trkpt lat="21.831694765766784" lon="100.48935235744054"><ele>1287.5714285714284</ele><time>2026-03-29T07:29:53Z</time></trkpt><trkpt lat="21.831707737475462" lon="100.48928158011748"><ele>1285.7142857142858</ele><time>2026-03-29T07:30:01Z</time></trkpt><trkpt lat="21.83174217045362" lon="100.48920137557178"><ele>1283.857142857143</ele><time>2026-03-29T07:30:06Z</time></trkpt><trkpt lat="21.831737333553477" lon="100.48913247822621"><ele>1282.0</ele><time>2026-03-29T07:30:13Z</time></trkpt><trkpt lat="21.83172787660236" lon="100.48906453935206"><ele>1282.0</ele><time>2026-03-29T07:30:22Z</time></trkpt><trkpt lat="21.831755490897052" lon="100.48900091712807"><ele>1282.0</ele><time>2026-03-29T07:30:24.999Z</time></trkpt><trkpt lat="21.831819594230158" lon="100.48896904544613"><ele>1295.0</ele><time>2026-03-29T07:30:40.999Z</time></trkpt></trkseg></trk></gpx>